M I D A S
Marine Information and Data Acquisition System
Tripno 691 of the Zeeleeuw from 2004-04-29 07:42:40 to 2004-04-29 16:05:36
Back to CruiseResearch ActivitiesStationsMapUnderway DataData graphs

EquipmentUnitsComment
TimeDGPSUTC
LatitudeDGPSDM.mWGS84
LongitudeDGPSDM.mWGS84
TemperatureSBE03/SBE38deg celciusITS90
ConductivitySBE21S/mITS90
SalinitySBE21 Practical Salinity Units
ChlorophylAChelsea fluorimeterg/lCalibrated in Aceton
Missing or incorrect values are displayed as -999
Sea surface data collected by the RV Zeeleeuw from 2004-04-29 07:42:40 to 2004-04-29 16:05:36
                                                                                    Next 1000 lines
Time Latitude Longitude Temperature Conductivity Salinity ChlorophylA
2004-04-29 07:42:47 51°14.352 2°54.546 12.027249 3.415034 29.008911 68.087059
2004-04-29 07:42:52 51°14.345 2°54.52 12.010557 3.455486 29.414668 68.087059
2004-04-29 07:42:58 51°14.337 2°54.489 11.971288 3.481402 29.690482 68.154477
2004-04-29 07:43:02 51°14.332 2°54.469 11.956312 3.508478 29.96622 68.120768
2004-04-29 07:43:07 51°14.326 2°54.443 11.962139 3.540086 30.300273 68.154477
2004-04-29 07:43:12 51°14.319 2°54.418 11.936733 3.557366 30.490108 68.154477
2004-04-29 07:43:18 51°14.31 2°54.387 11.936733 3.557366 30.490108 68.154477
2004-04-29 07:43:22 51°14.304 2°54.367 11.900792 3.572011 30.648845 68.087059
2004-04-29 07:43:27 51°14.297 2°54.342 11.921976 3.583286 30.778303 68.120768
2004-04-29 07:43:32 51°14.289 2°54.317 11.904164 3.590662 30.864919 68.120768
2004-04-29 07:43:38 51°14.281 2°54.287 11.889947 3.593928 30.905222 68.154477
2004-04-29 07:43:43 51°14.273 2°54.262 11.9002 3.605625 31.040517 68.120768
2004-04-29 07:43:48 51°14.266 2°54.237 11.9002 3.605625 31.040517 68.120768
2004-04-29 07:43:52 51°14.26 2°54.216 11.885526 3.608048 31.075494 68.120768
2004-04-29 07:43:56 51°14.254 2°54.196 11.889127 3.61005 31.101214 68.120768
2004-04-29 07:44:02 51°14.246 2°54.166 11.861504 3.611631 31.122255 68.087059
2004-04-29 07:44:07 51°14.238 2°54.141 11.870804 3.614055 31.15072 68.087059
2004-04-29 07:44:12 51°14.23 2°54.116 11.850424 3.618059 31.193681 68.087059
2004-04-29 07:44:18 51°14.221 2°54.086 11.850424 3.618059 31.193681 68.087059
2004-04-29 07:44:22 51°14.215 2°54.066 11.847643 3.615635 31.171781 68.154477
2004-04-29 07:44:27 51°14.207 2°54.041 11.845545 3.617743 31.199217 68.087059
2004-04-29 07:44:32 51°14.199 2°54.016 11.851382 3.62101 31.24042 68.154477
2004-04-29 07:44:37 51°14.192 2°53.992 11.850014 3.622801 31.261558 68.120768
2004-04-29 07:44:43 51°14.182 2°53.962 11.846184 3.623644 31.279558 68.120768
2004-04-29 07:44:48 51°14.175 2°53.937 11.846184 3.623644 31.279558 68.120768
2004-04-29 07:44:52 51°14.169 2°53.917 11.840939 3.624276 31.2929 68.154477
2004-04-29 07:44:58 51°14.16 2°53.887 11.839617 3.62259 31.278047 68.120768
2004-04-29 07:45:03 51°14.152 2°53.862 11.835558 3.623223 31.285437 68.087059
2004-04-29 07:45:08 51°14.145 2°53.837 11.851154 3.625119 31.304961 68.188187
2004-04-29 07:45:12 51°14.138 2°53.817 11.845454 3.623855 31.293489 68.120768
2004-04-29 07:45:16 51°14.133 2°53.796 11.845454 3.623855 31.293489 68.120768
2004-04-29 07:45:22 51°14.123 2°53.767 11.858677 3.624487 31.302867 68.120768
2004-04-29 07:45:28 51°14.115 2°53.737 11.851336 3.625014 31.309248 68.087059
2004-04-29 07:45:32 51°14.108 2°53.717 11.864604 3.627016 31.327802 68.154477
2004-04-29 07:45:38 51°14.1 2°53.686 11.861003 3.627754 31.331568 68.120768
2004-04-29 07:45:42 51°14.093 2°53.667 11.865972 3.625541 31.310331 68.154477
2004-04-29 07:45:46 51°14.088 2°53.646 11.865972 3.625541 31.310331 68.154477
2004-04-29 07:45:52 51°14.079 2°53.616 11.864012 3.626595 31.317794 68.154477
2004-04-29 07:45:56 51°14.073 2°53.596 11.86661 3.628702 31.336031 68.120768
2004-04-29 07:46:03 51°14.062 2°53.56 11.875089 3.626595 31.312496 68.087059
2004-04-29 07:46:08 51°14.054 2°53.536 11.885709 3.627859 31.323304 68.087059
2004-04-29 07:46:12 51°14.048 2°53.515 11.884022 3.629124 31.334112 68.120768
2004-04-29 07:46:18 51°14.039 2°53.486 11.884022 3.629124 31.334112 68.120768
2004-04-29 07:46:22 51°14.033 2°53.465 11.894003 3.630283 31.343909 68.087059
2004-04-29 07:46:27 51°14.025 2°53.44 11.889901 3.62807 31.320028 68.154477
2004-04-29 07:46:32 51°14.018 2°53.415 11.895142 3.628913 31.32348 68.087059
2004-04-29 07:46:38 51°14.009 2°53.385 11.900792 3.631231 31.341744 68.120768
2004-04-29 07:46:42 51°14.003 2°53.365 11.902159 3.630177 31.328988 68.120768
2004-04-29 07:46:47 51°13.995 2°53.34 11.902159 3.630177 31.328988 68.120768
2004-04-29 07:46:52 51°13.988 2°53.315 11.912228 3.631863 31.341185 68.154477
2004-04-29 07:46:58 51°13.978 2°53.284 11.911135 3.632179 31.343554 68.087059
2004-04-29 07:47:02 51°13.972 2°53.264 11.9161 3.627648 31.295475 68.087059
2004-04-29 07:47:07 51°13.965 2°53.239 11.926121 3.628386 31.300563 68.120768
2004-04-29 07:47:12 51°13.957 2°53.214 11.923343 3.63102 31.32185 68.120768
2004-04-29 07:47:18 51°13.948 2°53.184 11.923343 3.63102 31.32185 68.120768
2004-04-29 07:47:22 51°13.943 2°53.163 11.911043 3.632179 31.32833 68.120768
2004-04-29 07:47:27 51°13.935 2°53.138 11.897785 3.631863 31.323977 68.154477
2004-04-29 07:47:32 51°13.928 2°53.112 11.882473 3.628175 31.285326 68.120768
2004-04-29 07:47:37 51°13.92 2°53.088 11.852887 3.630598 31.303925 68.154477
2004-04-29 07:47:42 51°13.913 2°53.062 11.834645 3.631863 31.315381 68.154477
2004-04-29 07:47:47 51°13.906 2°53.037 11.834645 3.631863 31.315381 68.154477
2004-04-29 07:47:52 51°13.898 2°53.012 11.824565 3.633865 31.339197 68.154477
2004-04-29 07:47:58 51°13.89 2°52.981 11.818954 3.635129 31.361912 68.120768
2004-04-29 07:48:02 51°13.884 2°52.961 11.823196 3.63671 31.389666 68.120768
2004-04-29 07:48:07 51°13.876 2°52.935 11.821235 3.637764 31.413052 68.154477
2004-04-29 07:48:12 51°13.869 2°52.91 11.807228 3.640083 31.449266 68.120768
2004-04-29 07:48:18 51°13.86 2°52.88 11.807228 3.640083 31.449266 68.120768
2004-04-29 07:48:22 51°13.854 2°52.859 11.79833 3.635446 31.414715 68.120768
2004-04-29 07:48:28 51°13.845 2°52.829 11.791758 3.639872 31.463216 68.120768
2004-04-29 07:48:32 51°13.839 2°52.808 11.792214 3.639977 31.468891 68.087059
2004-04-29 07:48:38 51°13.831 2°52.777 11.781854 3.641453 31.4884 68.120768
2004-04-29 07:48:42 51°13.825 2°52.757 11.772358 3.64061 31.488298 68.087059
2004-04-29 07:48:48 51°13.816 2°52.726 11.772358 3.64061 31.488298 68.087059
2004-04-29 07:48:52 51°13.811 2°52.706 11.77455 3.641558 31.502086 68.120768
2004-04-29 07:48:58 51°13.802 2°52.675 11.774869 3.641242 31.504385 68.120768
2004-04-29 07:49:02 51°13.796 2°52.655 11.77948 3.640926 31.504683 68.120768
2004-04-29 07:49:07 51°13.789 2°52.629 11.772632 3.64061 31.508987 68.154477
2004-04-29 07:49:12 51°13.781 2°52.604 11.774048 3.643455 31.539701 68.120768
2004-04-29 07:49:18 51°13.772 2°52.573 11.774048 3.643455 31.539701 68.120768
2004-04-29 07:49:22 51°13.766 2°52.554 11.769711 3.641032 31.519723 68.154477
2004-04-29 07:49:27 51°13.758 2°52.528 11.7714 3.642296 31.533227 68.087059
2004-04-29 07:49:32 51°13.75 2°52.503 11.769437 3.642507 31.534587 68.120768
2004-04-29 07:49:38 51°13.741 2°52.473 11.769345 3.641137 31.52341 68.087059
2004-04-29 07:49:42 51°13.734 2°52.454 11.785733 3.641453 31.525783 68.087059
2004-04-29 07:49:47 51°13.727 2°52.428 11.785733 3.641453 31.525783 68.087059
2004-04-29 07:49:52 51°13.719 2°52.404 11.784501 3.64061 31.520345 68.120768
2004-04-29 07:49:58 51°13.709 2°52.374 11.771217 3.642191 31.536894 68.154477
2004-04-29 07:50:02 51°13.702 2°52.354 11.773911 3.6404 31.518985 68.154477
2004-04-29 07:50:07 51°13.695 2°52.329 11.768569 3.639557 31.509536 68.120768
2004-04-29 07:50:12 51°13.686 2°52.305 11.745052 3.640926 31.518709 68.154477
2004-04-29 07:50:16 51°13.68 2°52.284 11.745052 3.640926 31.518709 68.154477
2004-04-29 07:50:22 51°13.671 2°52.254 11.747062 3.642823 31.538298 68.120768
2004-04-29 07:50:26 51°13.664 2°52.234 11.739572 3.63903 31.505802 68.154477
2004-04-29 07:50:32 51°13.655 2°52.204 11.729248 3.638503 31.500732 68.087059
2004-04-29 07:50:38 51°13.645 2°52.175 11.728289 3.638187 31.503034 68.087059
2004-04-29 07:50:42 51°13.639 2°52.155 11.728928 3.6404 31.53102 68.087059
2004-04-29 07:50:48 51°13.629 2°52.125 11.728928 3.6404 31.53102 68.087059
2004-04-29 07:50:52 51°13.623 2°52.105 11.731761 3.636817 31.502545 68.087059
2004-04-29 07:50:58 51°13.614 2°52.075 11.745783 3.640716 31.54611 68.120768
2004-04-29 07:51:02 51°13.607 2°52.056 11.759803 3.637028 31.517949 68.154477
2004-04-29 07:51:08 51°13.597 2°52.026 11.765054 3.640822 31.556501 68.120768
2004-04-29 07:51:12 51°13.591 2°52.006 11.772769 3.639979 31.550389 68.120768
2004-04-29 07:51:18 51°13.582 2°51.975 11.772769 3.639979 31.550389 68.120768
2004-04-29 07:51:22 51°13.575 2°51.956 11.766652 3.640189 31.5484 68.120768
2004-04-29 07:51:26 51°13.569 2°51.935 11.761949 3.641454 31.553214 68.120768
2004-04-29 07:51:32 51°13.559 2°51.906 11.774002 3.642297 31.554637 68.120768
2004-04-29 07:51:38 51°13.55 2°51.876 11.765054 3.640927 31.534086 68.120768
2004-04-29 07:51:42 51°13.544 2°51.856 11.775737 3.638503 31.506745 68.120768
2004-04-29 07:51:47 51°13.536 2°51.831 11.775737 3.638503 31.506745 68.120768
2004-04-29 07:51:52 51°13.528 2°51.806 11.782493 3.640505 31.526015 68.087059
2004-04-29 07:51:58 51°13.518 2°51.777 11.786144 3.642507 31.544619 68.087059
2004-04-29 07:52:02 51°13.512 2°51.757 11.783771 3.642613 31.544295 68.087059
2004-04-29 07:52:07 51°13.504 2°51.732 11.779891 3.641137 31.527421 68.087059
2004-04-29 07:52:12 51°13.496 2°51.707 11.779023 3.646195 31.574767 68.087059
2004-04-29 07:52:17 51°13.488 2°51.682 11.779023 3.646195 31.574767 68.087059
2004-04-29 07:52:22 51°13.481 2°51.657 11.774458 3.648408 31.59205 68.087059
2004-04-29 07:52:28 51°13.472 2°51.627 11.772952 3.646827 31.574828 68.087059
2004-04-29 07:52:32 51°13.465 2°51.608 11.77003 3.650832 31.61404 68.087059
2004-04-29 07:52:37 51°13.457 2°51.583 11.767336 3.651569 31.620471 68.120768
2004-04-29 07:52:43 51°13.446 2°51.554 11.772587 3.651148 31.619765 68.087059
2004-04-29 07:52:47 51°13.44 2°51.534 11.772587 3.651148 31.619765 68.087059
2004-04-29 07:52:52 51°13.432 2°51.51 11.774002 3.652623 31.636652 68.120768
2004-04-29 07:52:58 51°13.422 2°51.48 11.77245 3.651148 31.623788 68.154477
2004-04-29 07:53:02 51°13.415 2°51.461 11.771902 3.653677 31.649483 68.154477
2004-04-29 07:53:07 51°13.407 2°51.437 11.767793 3.654625 31.659288 68.087059
2004-04-29 07:53:12 51°13.398 2°51.413 11.77003 3.654309 31.656915 68.154477
2004-04-29 07:53:18 51°13.388 2°51.383 11.77003 3.654309 31.656915 68.154477
2004-04-29 07:53:22 51°13.381 2°51.364 11.766789 3.655469 31.667407 68.120768
2004-04-29 07:53:26 51°13.375 2°51.345 11.765693 3.65315 31.644409 68.087059
2004-04-29 07:53:32 51°13.364 2°51.315 11.766743 3.654836 31.659975 68.087059
2004-04-29 07:53:38 51°13.354 2°51.286 11.76656 3.654204 31.6559 68.120768
2004-04-29 07:53:42 51°13.347 2°51.267 11.768752 3.654099 31.655556 68.120768
2004-04-29 07:53:47 51°13.339 2°51.243 11.768752 3.654099 31.655556 68.120768
2004-04-29 07:53:52 51°13.33 2°51.219 11.775828 3.652307 31.638975 68.120768
2004-04-29 07:53:58 51°13.32 2°51.189 11.776284 3.653572 31.652496 68.120768
2004-04-29 07:54:02 51°13.314 2°51.169 11.785094 3.655469 31.670093 68.120768
2004-04-29 07:54:08 51°13.304 2°51.14 11.796733 3.655363 31.668407 68.087059
2004-04-29 07:54:12 51°13.298 2°51.12 11.79048 3.657998 31.69311 68.120768
2004-04-29 07:54:18 51°13.288 2°51.09 11.79048 3.657998 31.69311 68.120768
2004-04-29 07:54:22 51°13.282 2°51.07 11.803669 3.655469 31.666735 68.120768
2004-04-29 07:54:27 51°13.274 2°51.046 11.796961 3.655363 31.663034 68.154477
2004-04-29 07:54:32 51°13.266 2°51.021 11.799288 3.657365 31.675599 68.120768
2004-04-29 07:54:38 51°13.256 2°50.992 11.794588 3.656733 31.665483 68.087059
2004-04-29 07:54:42 51°13.249 2°50.972 11.79979 3.653888 31.63407 68.087059
2004-04-29 07:54:48 51°13.239 2°50.943 11.79979 3.653888 31.63407 68.087059
2004-04-29 07:54:52 51°13.232 2°50.924 11.801068 3.657049 31.662486 68.120768
2004-04-29 07:54:56 51°13.225 2°50.904 11.810787 3.657787 31.669586 68.087059
2004-04-29 07:55:02 51°13.215 2°50.875 11.81462 3.655363 31.644246 68.087059
2004-04-29 07:55:08 51°13.205 2°50.845 11.811061 3.658735 31.678044 68.120768
2004-04-29 07:55:12 51°13.198 2°50.826 11.813251 3.660842 31.696988 68.087059
2004-04-29 07:55:18 51°13.187 2°50.796 11.813251 3.660842 31.696988 68.087059
2004-04-29 07:55:22 51°13.181 2°50.777 11.811289 3.658103 31.669273 68.087059
2004-04-29 07:55:28 51°13.17 2°50.748 11.819091 3.658946 31.672018 68.120768
2004-04-29 07:55:32 51°13.164 2°50.728 11.818634 3.661264 31.692986 68.154477
2004-04-29 07:55:38 51°13.154 2°50.698 11.826481 3.659999 31.680817 68.120768
2004-04-29 07:55:42 51°13.146 2°50.679 11.828351 3.662739 31.706513 68.120768
2004-04-29 07:55:48 51°13.137 2°50.649 11.828351 3.662739 31.706513 68.120768
2004-04-29 07:55:52 51°13.13 2°50.63 11.834463 3.659894 31.676447 68.120768
2004-04-29 07:55:58 51°13.119 2°50.601 11.83013 3.659051 31.666994 68.120768
2004-04-29 07:56:02 51°13.112 2°50.581 11.830449 3.66158 31.689315 68.087059
2004-04-29 07:56:07 51°13.104 2°50.556 11.836515 3.66453 31.712335 68.120768
2004-04-29 07:56:12 51°13.095 2°50.532 11.832228 3.664952 31.713704 68.120768
2004-04-29 07:56:18 51°13.085 2°50.502 11.832228 3.664952 31.713704 68.120768
2004-04-29 07:56:22 51°13.078 2°50.483 11.836287 3.663055 31.6921 68.120768
2004-04-29 07:56:27 51°13.07 2°50.458 11.83802 3.663582 31.697168 68.120768
2004-04-29 07:56:32 51°13.062 2°50.433 11.843721 3.668429 31.742458 68.120768
2004-04-29 07:56:38 51°13.052 2°50.403 11.845545 3.666638 31.724552 68.154477
2004-04-29 07:56:42 51°13.045 2°50.384 11.84664 3.669378 31.750911 68.087059
2004-04-29 07:56:48 51°13.035 2°50.354 11.84664 3.669378 31.750911 68.087059
2004-04-29 07:56:52 51°13.028 2°50.335 11.848008 3.66727 31.728619 68.154477
2004-04-29 07:56:58 51°13.018 2°50.305 11.848144 3.66316 31.688417 68.154477
2004-04-29 07:57:02 51°13.011 2°50.285 11.851108 3.667902 31.730671 68.120768
2004-04-29 07:57:08 51°13.001 2°50.256 11.855623 3.668429 31.733724 68.087059
2004-04-29 07:57:12 51°12.994 2°50.236 11.857492 3.668745 31.73475 68.120768
2004-04-29 07:57:17 51°12.986 2°50.212 11.857492 3.668745 31.73475 68.120768
2004-04-29 07:57:22 51°12.977 2°50.187 11.854711 3.669588 31.741515 68.087059
2004-04-29 07:57:27 51°12.969 2°50.163 11.857401 3.669905 31.743884 68.154477
2004-04-29 07:57:32 51°12.96 2°50.138 11.859133 3.665479 31.699308 68.120768
2004-04-29 07:57:38 51°12.95 2°50.108 11.86547 3.67001 31.74221 68.120768
2004-04-29 07:57:42 51°12.943 2°50.088 11.865242 3.670537 31.744591 68.154477
2004-04-29 07:57:46 51°12.937 2°50.069 11.865242 3.670537 31.744591 68.154477
2004-04-29 07:57:52 51°12.927 2°50.039 11.870394 3.670221 31.740207 68.120768
2004-04-29 07:57:58 51°12.917 2°50.009 11.865835 3.671169 31.748656 68.120768
2004-04-29 07:58:02 51°12.911 2°49.989 11.86816 3.670326 31.737192 68.087059
2004-04-29 07:58:08 51°12.901 2°49.959 11.863875 3.669694 31.730442 68.120768
2004-04-29 07:58:12 51°12.894 2°49.94 11.862644 3.66727 31.703118 68.154477
2004-04-29 07:58:18 51°12.885 2°49.91 11.862644 3.66727 31.703118 68.154477
2004-04-29 07:58:22 51°12.878 2°49.89 11.869026 3.670115 31.729125 68.120768
2004-04-29 07:58:27 51°12.87 2°49.865 11.864604 3.671907 31.747689 68.154477
2004-04-29 07:58:32 51°12.861 2°49.84 11.865197 3.671907 31.747018 68.087059
2004-04-29 07:58:38 51°12.851 2°49.811 11.857583 3.670642 31.734861 68.120768
2004-04-29 07:58:42 51°12.845 2°49.791 11.859316 3.6757 31.784836 68.120768
2004-04-29 07:58:48 51°12.834 2°49.761 11.859316 3.6757 31.784836 68.120768
2004-04-29 07:58:52 51°12.827 2°49.742 11.855349 3.673382 31.763216 68.120768
2004-04-29 07:58:58 51°12.817 2°49.712 11.840574 3.672223 31.750728 68.120768
2004-04-29 07:59:02 51°12.81 2°49.693 11.841988 3.672539 31.755783 68.087059
2004-04-29 07:59:07 51°12.802 2°49.668 11.83241 3.673487 31.767589 68.154477
2004-04-29 07:59:12 51°12.793 2°49.644 11.818862 3.673277 31.765563 68.087059
2004-04-29 07:59:18 51°12.784 2°49.614 11.818862 3.673277 31.765563 68.087059
2004-04-29 07:59:22 51°12.777 2°49.594 11.823516 3.67433 31.77973 68.120768
2004-04-29 07:59:27 51°12.768 2°49.569 11.81795 3.677597 31.816535 68.120768
2004-04-29 07:59:32 51°12.76 2°49.545 11.817083 3.679178 31.834438 68.087059
2004-04-29 07:59:38 51°12.75 2°49.515 11.806863 3.674752 31.799258 68.087059
2004-04-29 07:59:42 51°12.743 2°49.496 11.803304 3.680443 31.859417 68.087059
2004-04-29 07:59:47 51°12.735 2°49.471 11.803304 3.680443 31.859417 68.087059
2004-04-29 07:59:52 51°12.726 2°49.446 11.800885 3.679705 31.855689 68.087059
2004-04-29 07:59:58 51°12.717 2°49.416 11.801068 3.680654 31.866844 68.087059
2004-04-29 08:00:03 51°12.708 2°49.391 11.804536 3.680127 31.86717 68.087059
2004-04-29 08:00:08 51°12.7 2°49.366 11.803897 3.684237 31.911482 68.120768
2004-04-29 08:00:12 51°12.694 2°49.346 11.802893 3.689611 31.965967 68.087059
2004-04-29 08:00:18 51°12.684 2°49.315 11.802893 3.689611 31.965967 68.087059
2004-04-29 08:00:20 51°12.681 2°49.305 11.801022 3.687925 31.953106 68.120768
2004-04-29 08:00:27 51°12.67 2°49.27 11.799334 3.690033 31.974094 68.120768
2004-04-29 08:00:32 51°12.661 2°49.245 11.798923 3.688031 31.955476 68.120768
2004-04-29 08:00:37 51°12.654 2°49.22 11.797235 3.685712 31.933136 68.120768
2004-04-29 08:00:42 51°12.645 2°49.195 11.80052 3.686661 31.942275 68.087059
2004-04-29 08:00:47 51°12.637 2°49.17 11.80052 3.686661 31.942275 68.087059
2004-04-29 08:00:52 51°12.629 2°49.145 11.802756 3.688768 31.96394 68.120768
2004-04-29 08:00:58 51°12.619 2°49.115 11.803988 3.691508 31.991025 68.120768
2004-04-29 08:01:02 51°12.613 2°49.094 11.806315 3.688979 31.967326 68.053349
2004-04-29 08:01:08 51°12.603 2°49.065 11.814802 3.689506 31.972404 68.120768
2004-04-29 08:01:12 51°12.597 2°49.045 11.817585 3.686555 31.942613 68.087059
2004-04-29 08:01:17 51°12.589 2°49.019 11.817585 3.686555 31.942613 68.087059
2004-04-29 08:01:22 51°12.581 2°48.995 11.8242 3.692035 31.994747 68.087059
2004-04-29 08:01:28 51°12.571 2°48.965 11.826389 3.689506 31.968339 68.120768
2004-04-29 08:01:32 51°12.564 2°48.945 11.829491 3.692984 32.000498 68.087059
2004-04-29 08:01:38 51°12.555 2°48.915 11.828396 3.691297 31.980182 68.120768
2004-04-29 08:01:42 51°12.548 2°48.894 11.832365 3.690243 31.965964 68.154477
2004-04-29 08:01:48 51°12.539 2°48.864 11.832365 3.690243 31.965964 68.154477
2004-04-29 08:01:52 51°12.533 2°48.843 11.836014 3.689506 31.955473 68.087059
2004-04-29 08:01:57 51°12.525 2°48.818 11.838476 3.688663 31.944646 68.154477
2004-04-29 08:02:03 51°12.516 2°48.788 11.841851 3.693826 31.992353 68.087059
2004-04-29 08:02:08 51°12.508 2°48.762 11.848144 3.692351 31.97611 68.087059
2004-04-29 08:02:12 51°12.502 2°48.742 11.846275 3.693194 31.982876 68.120768
2004-04-29 08:02:18 51°12.493 2°48.711 11.846275 3.693194 31.982876 68.120768
2004-04-29 08:02:22 51°12.487 2°48.691 11.853115 3.693299 31.980505 68.087059
2004-04-29 08:02:27 51°12.479 2°48.666 11.857902 3.694248 31.987608 68.154477
2004-04-29 08:02:32 51°12.471 2°48.64 11.857538 3.687398 31.91827 68.154477
2004-04-29 08:02:37 51°12.464 2°48.614 11.861641 3.695196 31.992001 68.087059
2004-04-29 08:02:42 51°12.457 2°48.588 11.86547 3.690875 31.946341 68.120768
2004-04-29 08:02:48 51°12.448 2°48.557 11.86547 3.690875 31.946341 68.120768
2004-04-29 08:02:52 51°12.442 2°48.537 11.870531 3.692983 31.962572 68.120768
2004-04-29 08:02:58 51°12.434 2°48.505 11.875317 3.698252 32.011945 68.087059
2004-04-29 08:03:02 51°12.428 2°48.485 11.880103 3.698147 32.008221 68.120768
2004-04-29 08:03:06 51°12.422 2°48.464 11.879374 3.697936 32.003483 68.120768
2004-04-29 08:03:12 51°12.414 2°48.433 11.883202 3.698041 32.001789 68.087059
2004-04-29 08:03:18 51°12.405 2°48.402 11.883202 3.698041 32.001789 68.087059
2004-04-29 08:03:23 51°12.399 2°48.376 11.885982 3.698041 31.996374 68.120768
2004-04-29 08:03:27 51°12.392 2°48.356 11.891223 3.698568 31.998738 68.087059
2004-04-29 08:03:32 51°12.386 2°48.33 11.894139 3.698673 31.997045 68.120768
2004-04-29 08:03:37 51°12.378 2°48.304 11.899835 3.6992 32.000085 68.120768
2004-04-29 08:03:42 51°12.371 2°48.278 11.902159 3.699833 32.004139 68.154477
2004-04-29 08:03:47 51°12.364 2°48.252 11.902159 3.699833 32.004139 68.154477
2004-04-29 08:03:52 51°12.357 2°48.226 11.907718 3.700992 32.012586 68.087059
2004-04-29 08:03:58 51°12.348 2°48.195 11.911135 3.702046 32.020017 68.120768
2004-04-29 08:04:02 51°12.343 2°48.174 11.912228 3.704048 32.033864 68.087059
2004-04-29 08:04:08 51°12.334 2°48.143 11.916783 3.706155 32.051431 68.120768
2004-04-29 08:04:12 51°12.329 2°48.122 11.912866 3.708685 32.073052 68.120768
2004-04-29 08:04:18 51°12.32 2°48.091 11.912866 3.708685 32.073052 68.120768
2004-04-29 08:04:22 51°12.314 2°48.07 11.917786 3.710371 32.085884 68.120768
2004-04-29 08:04:28 51°12.306 2°48.039 11.921202 3.711635 32.096693 68.087059
2004-04-29 08:04:32 51°12.3 2°48.018 11.921384 3.712478 32.101413 68.120768
2004-04-29 08:04:38 51°12.291 2°47.987 11.921111 3.712795 32.103097 68.120768
2004-04-29 08:04:42 51°12.285 2°47.967 11.917649 3.713743 32.111542 68.120768
2004-04-29 08:04:47 51°12.279 2°47.941 11.917649 3.713743 32.111542 68.120768
2004-04-29 08:04:52 51°12.271 2°47.915 11.917831 3.714797 32.119644 68.053349
2004-04-29 08:04:58 51°12.263 2°47.884 11.916783 3.715429 32.123012 68.087059
2004-04-29 08:05:03 51°12.255 2°47.858 11.919152 3.715851 32.127067 68.120768
2004-04-29 08:05:08 51°12.249 2°47.832 11.921111 3.714902 32.116588 68.120768
2004-04-29 08:05:12 51°12.242 2°47.811 11.924891 3.715956 32.127402 68.087059
2004-04-29 08:05:18 51°12.234 2°47.78 11.924891 3.715956 32.127402 68.087059
2004-04-29 08:05:22 51°12.228 2°47.759 11.927169 3.715535 32.124705 68.087059
2004-04-29 08:05:27 51°12.221 2°47.733 11.929537 3.715218 32.120985 68.154477
2004-04-29 08:05:32 51°12.214 2°47.707 11.931814 3.715113 32.118615 68.154477
2004-04-29 08:05:37 51°12.207 2°47.681 11.938236 3.715218 32.118272 68.087059
2004-04-29 08:05:42 51°12.2 2°47.655 11.940421 3.716061 32.123666 68.120768
2004-04-29 08:05:48 51°12.191 2°47.623 11.940421 3.716061 32.123666 68.120768
2004-04-29 08:05:52 51°12.186 2°47.603 11.94798 3.716061 32.12231 68.154477
2004-04-29 08:05:58 51°12.177 2°47.571 11.949528 3.716588 32.124664 68.087059
2004-04-29 08:06:02 51°12.171 2°47.55 11.953444 3.717221 32.128709 68.087059
2004-04-29 08:06:06 51°12.166 2°47.529 11.956767 3.717115 32.124982 68.154477
2004-04-29 08:06:12 51°12.157 2°47.498 11.957996 3.717221 32.123283 68.154477
2004-04-29 08:06:18 51°12.149 2°47.467 11.957996 3.717221 32.123283 68.154477
2004-04-29 08:06:23 51°12.142 2°47.441 11.959453 3.71838 32.130359 68.120768
2004-04-29 08:06:27 51°12.136 2°47.42 11.963414 3.718801 32.131021 68.188187
2004-04-29 08:06:32 51°12.129 2°47.394 11.963368 3.719433 32.134386 68.188187
2004-04-29 08:06:37 51°12.122 2°47.367 11.964415 3.71996 32.136738 68.120768
2004-04-29 08:06:43 51°12.114 2°47.336 11.964734 3.720487 32.13909 68.154477
2004-04-29 08:06:47 51°12.108 2°47.315 11.964734 3.720487 32.13909 68.154477
2004-04-29 08:06:52 51°12.101 2°47.289 11.965781 3.720803 32.140095 68.188187
2004-04-29 08:06:58 51°12.093 2°47.257 11.96833 3.721014 32.141442 68.120768
2004-04-29 08:07:02 51°12.087 2°47.237 11.970514 3.721541 32.145828 68.154477
2004-04-29 08:07:07 51°12.079 2°47.211 11.97097 3.72133 32.14109 68.188187
2004-04-29 08:07:12 51°12.072 2°47.185 11.9732 3.721541 32.143794 68.221896
2004-04-29 08:07:17 51°12.065 2°47.159 11.9732 3.721541 32.143794 68.221896
2004-04-29 08:07:23 51°12.057 2°47.127 11.977615 3.721646 32.14345 68.154477
2004-04-29 08:07:28 51°12.05 2°47.101 11.981893 3.722173 32.14648 68.188187
2004-04-29 08:07:32 51°12.044 2°47.08 11.986898 3.7227 32.150187 68.188187
2004-04-29 08:07:38 51°12.036 2°47.049 11.992768 3.723227 32.153893 68.154477
2004-04-29 08:07:42 51°12.03 2°47.028 11.997227 3.725019 32.169073 68.154477
2004-04-29 08:07:48 51°12.022 2°46.997 11.997227 3.725019 32.169073 68.154477
2004-04-29 08:07:52 51°12.016 2°46.976 11.999775 3.726389 32.180201 68.154477
2004-04-29 08:07:57 51°12.009 2°46.95 12.005189 3.728918 32.200431 68.154477
2004-04-29 08:08:03 51°12 2°46.919 12.010466 3.731869 32.224708 68.120768
2004-04-29 08:08:08 51°11.993 2°46.893 12.012649 3.73503 32.251009 68.120768
2004-04-29 08:08:12 51°11.988 2°46.872 12.017016 3.737454 32.270898 68.120768
2004-04-29 08:08:16 51°11.982 2°46.851 12.017016 3.737454 32.270898 68.120768
2004-04-29 08:08:22 51°11.973 2°46.82 12.016698 3.740721 32.298207 68.154477
2004-04-29 08:08:27 51°11.966 2°46.794 12.018426 3.742197 32.308979 68.120768
2004-04-29 08:08:32 51°11.959 2°46.768 12.01929 3.744937 32.33122 68.120768
2004-04-29 08:08:38 51°11.95 2°46.736 12.018881 3.746939 32.348415 68.120768
2004-04-29 08:08:42 51°11.945 2°46.715 12.020018 3.748415 32.358501 68.154477
2004-04-29 08:08:47 51°11.938 2°46.689 12.020018 3.748415 32.358501 68.154477
2004-04-29 08:08:52 51°11.931 2°46.663 12.022428 3.749469 32.367945 68.154477
2004-04-29 08:08:58 51°11.922 2°46.632 12.021701 3.750312 32.374 68.154477
2004-04-29 08:09:02 51°11.917 2°46.611 12.022701 3.750944 32.379393 68.154477
2004-04-29 08:09:07 51°11.91 2°46.584 12.021564 3.751576 32.385468 68.154477
2004-04-29 08:09:12 51°11.902 2°46.558 12.02352 3.751682 32.385798 68.154477
2004-04-29 08:09:18 51°11.894 2°46.527 12.02352 3.751682 32.385798 68.154477
2004-04-29 08:09:22 51°11.888 2°46.506 12.023656 3.751787 32.385447 68.120768
2004-04-29 08:09:27 51°11.881 2°46.48 12.025157 3.751998 32.38679 68.188187
2004-04-29 08:09:32 51°11.874 2°46.454 12.026112 3.752314 32.389145 68.120768
2004-04-29 08:09:38 51°11.866 2°46.422 12.021473 3.752209 32.388133 68.154477
2004-04-29 08:09:42 51°11.86 2°46.402 12.024657 3.752314 32.388463 68.120768
2004-04-29 08:09:48 51°11.851 2°46.37 12.024657 3.752314 32.388463 68.120768
2004-04-29 08:09:51 51°11.847 2°46.355 12.022656 3.752314 32.388463 68.188187
2004-04-29 08:09:57 51°11.838 2°46.323 12.0212 3.751682 32.380343 68.120768
2004-04-29 08:10:02 51°11.831 2°46.297 12.021109 3.751049 32.37495 68.188187
2004-04-29 08:10:08 51°11.823 2°46.265 12.022701 3.750733 32.371232 68.154477
2004-04-29 08:10:12 51°11.817 2°46.245 12.01879 3.749785 32.362803 68.154477
2004-04-29 08:10:18 51°11.809 2°46.213 12.01879 3.749785 32.362803 68.154477
2004-04-29 08:10:23 51°11.802 2°46.186 12.016788 3.748415 32.350324 68.154477
2004-04-29 08:10:28 51°11.795 2°46.16 12.014969 3.747571 32.343589 68.154477
2004-04-29 08:10:32 51°11.79 2°46.139 12.019836 3.746412 32.332454 68.120768
2004-04-29 08:10:36 51°11.784 2°46.118 12.015469 3.745464 32.322664 68.154477
2004-04-29 08:10:42 51°11.776 2°46.086 12.01788 3.743777 32.309191 68.188187
2004-04-29 08:10:48 51°11.768 2°46.054 12.01788 3.743777 32.309191 68.188187
2004-04-29 08:10:52 51°11.763 2°46.032 12.015333 3.742618 32.298058 68.221896
2004-04-29 08:10:58 51°11.754 2°46.001 12.019381 3.741986 32.291305 68.154477
2004-04-29 08:11:02 51°11.749 2°45.979 12.017061 3.741775 32.290641 68.154477
2004-04-29 08:11:07 51°11.742 2°45.953 12.020154 3.74167 32.288949 68.221896
2004-04-29 08:11:12 51°11.735 2°45.927 12.022201 3.74167 32.289629 68.188187
2004-04-29 08:11:18 51°11.727 2°45.895 12.022201 3.74167 32.289629 68.188187
2004-04-29 08:11:22 51°11.721 2°45.874 12.026612 3.741986 32.293346 68.154477
2004-04-29 08:11:27 51°11.715 2°45.847 12.028204 3.741986 32.291305 68.154477
2004-04-29 08:11:32 51°11.708 2°45.821 12.031251 3.742724 32.29907 68.154477
2004-04-29 08:11:37 51°11.701 2°45.795 12.032251 3.743356 32.305143 68.188187
2004-04-29 08:11:43 51°11.693 2°45.763 12.033843 3.744621 32.313886 68.255606
2004-04-29 08:11:48 51°11.686 2°45.736 12.033843 3.744621 32.313886 68.255606
2004-04-29 08:11:52 51°11.681 2°45.715 12.034798 3.745674 32.323327 68.154477
2004-04-29 08:11:58 51°11.673 2°45.683 12.038117 3.745885 32.322628 68.188187
2004-04-29 08:12:01 51°11.669 2°45.667 12.03739 3.746728 32.329363 68.188187
2004-04-29 08:12:08 51°11.66 2°45.63 12.042073 3.746728 32.328002 68.255606
2004-04-29 08:12:12 51°11.654 2°45.609 12.042619 3.746623 32.325629 68.221896
2004-04-29 08:12:18 51°11.646 2°45.577 12.042619 3.746623 32.325629 68.221896
2004-04-29 08:12:21 51°11.642 2°45.562 12.04571 3.746517 32.321895 68.255606
2004-04-29 08:12:28 51°11.633 2°45.525 12.049893 3.746517 32.320535 68.221896
2004-04-29 08:12:32 51°11.627 2°45.504 12.056257 3.746834 32.322209 68.221896
2004-04-29 08:12:38 51°11.619 2°45.472 12.062121 3.74736 32.325227 68.255606
2004-04-29 08:12:42 51°11.613 2°45.451 12.068802 3.748204 32.33196 68.221896
2004-04-29 08:12:48 51°11.605 2°45.419 12.068802 3.748204 32.33196 68.221896
2004-04-29 08:12:52 51°11.6 2°45.398 12.075619 3.748731 32.334978 68.255606
2004-04-29 08:12:58 51°11.592 2°45.366 12.078073 3.749679 32.34068 68.255606
2004-04-29 08:13:02 51°11.587 2°45.345 12.083163 3.750944 32.348736 68.221896
2004-04-29 08:13:07 51°11.58 2°45.318 12.085889 3.752841 32.362178 68.424153
2004-04-29 08:13:12 51°11.573 2°45.292 12.09116 3.754632 32.374607 68.289315
2004-04-29 08:13:18 51°11.565 2°45.261 12.09116 3.754632 32.374607 68.289315
2004-04-29 08:13:22 51°11.56 2°45.239 12.095975 3.755686 32.379954 68.457862
2004-04-29 08:13:28 51°11.551 2°45.208 12.099155 3.756529 32.38464 68.255606
2004-04-29 08:13:32 51°11.546 2°45.187 12.102108 3.757478 32.389655 68.390443
2004-04-29 08:13:38 51°11.538 2°45.155 12.106878 3.75811 32.392317 68.289315
2004-04-29 08:13:42 51°11.533 2°45.134 12.111738 3.759269 32.399353 68.221896
2004-04-29 08:13:47 51°11.526 2°45.108 12.111738 3.759269 32.399353 68.221896
2004-04-29 08:13:52 51°11.519 2°45.081 12.114554 3.760323 32.406057 68.356734
2004-04-29 08:13:58 51°11.511 2°45.049 12.117597 3.760745 32.406015 67.547708
2004-04-29 08:14:02 51°11.506 2°45.028 12.11964 3.762115 32.417113 66.570136
2004-04-29 08:14:07 51°11.499 2°45.001 12.121457 3.762958 32.421112 65.693691
2004-04-29 08:14:12 51°11.493 2°44.975 12.124908 3.763695 32.425462 66.098204
2004-04-29 08:14:18 51°11.484 2°44.943 12.124908 3.763695 32.425462 66.098204
2004-04-29 08:14:22 51°11.479 2°44.922 12.128904 3.765066 32.435876 66.940939
2004-04-29 08:14:27 51°11.472 2°44.896 12.127951 3.766225 32.444268 64.985794
2004-04-29 08:14:32 51°11.466 2°44.87 12.135034 3.767279 32.451648 64.884665
2004-04-29 08:14:38 51°11.457 2°44.838 12.13576 3.768016 32.456677 63.704836
2004-04-29 08:14:42 51°11.452 2°44.817 12.138938 3.768649 32.460014 63.098067
2004-04-29 08:14:47 51°11.445 2°44.791 12.138938 3.768649 32.460014 63.098067
2004-04-29 08:14:52 51°11.439 2°44.764 12.147019 3.770124 32.472115 61.547435
2004-04-29 08:14:58 51°11.43 2°44.733 12.154464 3.771494 32.483206 60.738409
2004-04-29 08:15:03 51°11.424 2°44.706 12.162951 3.773075 32.495635 60.232768
2004-04-29 08:15:07 51°11.418 2°44.685 12.171074 3.774445 32.506041 59.120358
2004-04-29 08:15:12 51°11.412 2°44.659 12.177019 3.775815 32.515765 56.659571
2004-04-29 08:15:17 51°11.405 2°44.632 12.177019 3.775815 32.515765 56.659571
2004-04-29 08:15:23 51°11.397 2°44.601 12.181511 3.778977 32.540615 56.255059
2004-04-29 08:15:27 51°11.392 2°44.58 12.184687 3.782561 32.570868 54.46846
2004-04-29 08:15:32 51°11.385 2°44.553 12.188452 3.785828 32.596037 53.423469
2004-04-29 08:15:38 51°11.377 2°44.522 12.189269 3.789622 32.625568 52.884118
2004-04-29 08:15:43 51°11.37 2°44.495 12.190403 3.793627 32.657113 52.884118
2004-04-29 08:15:48 51°11.364 2°44.469 12.190403 3.793627 32.657113 52.884118
2004-04-29 08:15:52 51°11.358 2°44.448 12.189677 3.797 32.686016 50.55817
2004-04-29 08:15:58 51°11.35 2°44.416 12.190766 3.800583 32.716253 51.13123
2004-04-29 08:16:02 51°11.345 2°44.395 12.190222 3.802164 32.727292 50.187366
2004-04-29 08:16:07 51°11.338 2°44.368 12.191719 3.803534 32.739053 50.895264
2004-04-29 08:16:12 51°11.331 2°44.342 12.189496 3.804483 32.746087 50.928973
2004-04-29 08:16:18 51°11.323 2°44.311 12.189496 3.804483 32.746087 50.928973
2004-04-29 08:16:22 51°11.318 2°44.29 12.190267 3.805326 32.754855 50.221076
2004-04-29 08:16:27 51°11.311 2°44.264 12.188452 3.805537 32.756189 50.55817
2004-04-29 08:16:32 51°11.304 2°44.237 12.187227 3.805431 32.753806 51.13123
2004-04-29 08:16:38 51°11.297 2°44.206 12.187001 3.806169 32.762251 49.209794
2004-04-29 08:16:40 51°11.294 2°44.196 12.186002 3.806802 32.768313 51.468324
2004-04-29 08:16:48 51°11.283 2°44.154 12.186002 3.806802 32.768313 51.468324
2004-04-29 08:16:52 51°11.277 2°44.133 12.189133 3.807118 32.771344 50.962683
2004-04-29 08:16:57 51°11.271 2°44.107 12.186638 3.808066 32.781812 51.872836
2004-04-29 08:17:03 51°11.262 2°44.076 12.192717 3.80912 32.791229 53.760563
2004-04-29 08:17:07 51°11.257 2°44.055 12.189314 3.809331 32.793938 52.007674
2004-04-29 08:17:12 51°11.25 2°44.029 12.196709 3.809858 32.79899 53.322341
2004-04-29 08:17:18 51°11.242 2°43.997 12.196709 3.809858 32.79899 53.322341
2004-04-29 08:17:23 51°11.235 2°43.971 12.206506 3.810596 32.806064 53.389759
2004-04-29 08:17:27 51°11.23 2°43.95 12.222469 3.811123 32.810429 52.715571
2004-04-29 08:17:32 51°11.223 2°43.924 12.237068 3.811545 32.812408 53.490888
2004-04-29 08:17:38 51°11.216 2°43.892 12.246905 3.811966 32.81645 52.648153
2004-04-29 08:17:42 51°11.211 2°43.871 12.249171 3.813336 32.82546 53.625725
2004-04-29 08:17:47 51°11.205 2°43.845 12.249171 3.813336 32.82546 53.625725
2004-04-29 08:17:52 51°11.198 2°43.818 12.253749 3.815971 32.843153 52.176221
2004-04-29 08:17:58 51°11.19 2°43.787 12.252661 3.819449 32.866857 52.749281
2004-04-29 08:18:02 51°11.185 2°43.765 12.251618 3.822506 32.885136 51.704289
2004-04-29 08:18:07 51°11.179 2°43.739 12.247131 3.825141 32.902121 50.861554
2004-04-29 08:18:12 51°11.172 2°43.712 12.241556 3.826405 32.910107 50.861554
2004-04-29 08:18:18 51°11.165 2°43.68 12.241556 3.826405 32.910107 50.861554
2004-04-29 08:18:22 51°11.16 2°43.659 12.234574 3.826827 32.910014 50.288494
2004-04-29 08:18:28 51°11.152 2°43.627 12.236252 3.826511 32.905608 49.850272
2004-04-29 08:18:32 51°11.146 2°43.606 12.235255 3.825668 32.896843 47.72658
2004-04-29 08:18:38 51°11.139 2°43.574 12.239969 3.823981 32.882755 47.962546
2004-04-29 08:18:42 51°11.134 2°43.552 12.247041 3.821662 32.86536 46.917554
2004-04-29 08:18:47 51°11.127 2°43.526 12.247041 3.821662 32.86536 46.917554
2004-04-29 08:18:52 51°11.121 2°43.499 12.254655 3.81966 32.846866 47.322067
2004-04-29 08:18:58 51°11.113 2°43.467 12.258235 3.818184 32.836169 45.46805
2004-04-29 08:19:03 51°11.107 2°43.441 12.251256 3.817763 32.830756 45.636597
2004-04-29 08:19:08 51°11.1 2°43.415 12.256966 3.81829 32.835117 44.32193
2004-04-29 08:19:12 51°11.095 2°43.393 12.256694 3.8185 32.833013 43.378067
2004-04-29 08:19:18 51°11.087 2°43.361 12.256694 3.8185 32.833013 43.378067
2004-04-29 08:19:22 51°11.082 2°43.34 12.257737 3.818922 32.832242 43.142101
2004-04-29 08:19:27 51°11.075 2°43.314 12.252706 3.819027 32.830504 42.09711
2004-04-29 08:19:32 51°11.069 2°43.287 12.254247 3.819765 32.837568 41.254375
2004-04-29 08:19:37 51°11.063 2°43.26 12.258235 3.819976 32.838212 40.108255
2004-04-29 08:19:42 51°11.057 2°43.234 12.264534 3.820397 32.841562 39.366648
2004-04-29 08:19:48 51°11.049 2°43.202 12.264534 3.820397 32.841562 39.366648
2004-04-29 08:19:52 51°11.044 2°43.181 12.26902 3.819976 32.836152 39.332939
2004-04-29 08:19:58 51°11.036 2°43.149 12.276859 3.819238 32.831835 38.321657
2004-04-29 08:20:02 51°11.031 2°43.128 12.286146 3.81966 32.835185 38.591332
2004-04-29 08:20:08 51°11.023 2°43.096 12.288547 3.821557 32.851289 37.411503
2004-04-29 08:20:12 51°11.018 2°43.075 12.29285 3.823138 32.862303 36.939571
2004-04-29 08:20:18 51°11.01 2°43.043 12.29285 3.823138 32.862303 36.939571
2004-04-29 08:20:23 51°11.004 2°43.016 12.296655 3.82514 32.877351 35.89458
2004-04-29 08:20:27 51°10.998 2°42.995 12.297787 3.827354 32.89304 34.883298
2004-04-29 08:20:32 51°10.992 2°42.968 12.293167 3.829778 32.910744 34.040563
2004-04-29 08:20:37 51°10.986 2°42.941 12.297199 3.831148 32.920419 34.006853
2004-04-29 08:20:43 51°10.978 2°42.909 12.293394 3.833151 32.935459 33.63605
2004-04-29 08:20:47 51°10.973 2°42.888 12.293394 3.833151 32.935459 33.63605
2004-04-29 08:20:52 51°10.967 2°42.861 12.287052 3.833994 32.940088 31.613486
2004-04-29 08:20:58 51°10.959 2°42.829 12.293031 3.833678 32.935685 31.815742
2004-04-29 08:21:02 51°10.954 2°42.808 12.304626 3.833678 32.934309 31.276392
2004-04-29 08:21:07 51°10.947 2°42.782 12.313366 3.833783 32.935317 31.41123
2004-04-29 08:21:12 51°10.941 2°42.755 12.324595 3.833783 32.937382 30.80446
2004-04-29 08:21:18 51°10.932 2°42.723 12.324595 3.833783 32.937382 30.80446
2004-04-29 08:21:22 51°10.928 2°42.701 12.336229 3.833888 32.940456 30.332529
2004-04-29 08:21:28 51°10.92 2°42.669 12.343155 3.835469 32.952834 29.69205
2004-04-29 08:21:32 51°10.915 2°42.648 12.343426 3.839475 32.985658 29.69205
2004-04-29 08:21:38 51°10.907 2°42.616 12.347183 3.844218 33.022779 28.647059
2004-04-29 08:21:42 51°10.902 2°42.595 12.352704 3.849593 33.066635 27.905452
2004-04-29 08:21:47 51°10.896 2°42.569 12.352704 3.849593 33.066635 27.905452
2004-04-29 08:21:52 51°10.889 2°42.542 12.35741 3.854653 33.106073 26.354819
2004-04-29 08:21:58 51°10.882 2°42.51 12.363791 3.857499 33.127778 26.118853
2004-04-29 08:22:03 51°10.875 2°42.483 12.367999 3.860134 33.148844 26.085144
2004-04-29 08:22:08 51°10.869 2°42.457 12.372342 3.86182 33.160139 24.804187
2004-04-29 08:22:12 51°10.863 2°42.436 12.373518 3.863717 33.176217 24.703059
2004-04-29 08:22:18 51°10.855 2°42.404 12.373518 3.863717 33.176217 24.703059
2004-04-29 08:22:22 51°10.85 2°42.383 12.370985 3.866036 33.193559 23.556939
2004-04-29 08:22:27 51°10.843 2°42.357 12.37664 3.86825 33.20989 23.455811
2004-04-29 08:22:32 51°10.836 2°42.33 12.373382 3.870885 33.23233 23.017589
2004-04-29 08:22:37 51°10.83 2°42.304 12.37302 3.873626 33.255085 22.275982
2004-04-29 08:22:42 51°10.823 2°42.277 12.371437 3.876366 33.278533 21.500665
2004-04-29 08:22:48 51°10.815 2°42.246 12.371437 3.876366 33.278533 21.500665
2004-04-29 08:22:52 51°10.81 2°42.225 12.368587 3.879107 33.304062 21.332118
2004-04-29 08:22:58 51°10.802 2°42.193 12.369265 3.88111 33.321143 20.590512
2004-04-29 08:23:02 51°10.796 2°42.173 12.363564 3.882374 33.333247 20.017452
2004-04-29 08:23:08 51°10.788 2°42.141 12.357637 3.883007 33.339995 19.983742
2004-04-29 08:23:12 51°10.783 2°42.12 12.357999 3.884588 33.355823 19.848905
2004-04-29 08:23:18 51°10.775 2°42.089 12.357999 3.884588 33.355823 19.848905
2004-04-29 08:23:22 51°10.77 2°42.068 12.356415 3.886064 33.371339 19.612939
2004-04-29 08:23:27 51°10.763 2°42.042 12.349717 3.887856 33.389188 19.376973
2004-04-29 08:23:32 51°10.756 2°42.016 12.337633 3.890702 33.421314 19.00617
2004-04-29 08:23:37 51°10.75 2°41.989 12.32541 3.893126 33.447321 18.365691
2004-04-29 08:23:43 51°10.742 2°41.958 12.318302 3.894813 33.464172 17.994888
2004-04-29 08:23:47 51°10.737 2°41.937 12.318302 3.894813 33.464172 17.994888
2004-04-29 08:23:52 51°10.73 2°41.911 12.31563 3.897027 33.487471 17.590375
2004-04-29 08:23:58 51°10.722 2°41.88 12.304717 3.900189 33.521963 16.848768
2004-04-29 08:24:02 51°10.716 2°41.86 12.300505 3.902614 33.553597 16.241999
2004-04-29 08:24:07 51°10.71 2°41.833 12.294119 3.904827 33.580424 15.129589
2004-04-29 08:24:12 51°10.702 2°41.808 12.285059 3.905882 33.598247 14.657657
2004-04-29 08:24:18 51°10.695 2°41.777 12.285059 3.905882 33.598247 14.657657
2004-04-29 08:24:22 51°10.689 2°41.756 12.278671 3.906936 33.614674 13.949759
2004-04-29 08:24:28 51°10.681 2°41.725 12.262722 3.907779 33.629086 13.107024
2004-04-29 08:24:32 51°10.676 2°41.704 12.248672 3.908517 33.641788 12.668802
2004-04-29 08:24:38 51°10.668 2°41.673 12.233985 3.908517 33.649523 12.23058
2004-04-29 08:24:42 51°10.663 2°41.652 12.211449 3.909466 33.663555 11.859777
2004-04-29 08:24:48 51°10.655 2°41.621 12.211449 3.909466 33.663555 11.859777
2004-04-29 08:24:52 51°10.65 2°41.6 12.201925 3.909677 33.67121 11.455264
2004-04-29 08:24:58 51°10.642 2°41.569 12.18505 3.911153 33.694541 10.882204
2004-04-29 08:25:03 51°10.636 2°41.543 12.160137 3.912629 33.722118 10.814785
2004-04-29 08:25:08 51°10.629 2°41.517 12.144886 3.914316 33.75528 10.983332
2004-04-29 08:25:12 51°10.624 2°41.496 12.133672 3.916424 33.786166 10.747366
2004-04-29 08:25:18 51°10.616 2°41.465 12.133672 3.916424 33.786166 10.747366
2004-04-29 08:25:22 51°10.611 2°41.444 12.117506 3.918849 33.822242 11.08446
2004-04-29 08:25:27 51°10.604 2°41.418 12.104788 3.921063 33.858449 11.758648
2004-04-29 08:25:32 51°10.598 2°41.392 12.092114 3.922855 33.894183 13.107024
2004-04-29 08:25:37 51°10.591 2°41.366 12.075074 3.924226 33.920197 14.556529
2004-04-29 08:25:42 51°10.584 2°41.339 12.074347 3.925175 33.942879 16.140871
2004-04-29 08:25:48 51°10.577 2°41.308 12.074347 3.925175 33.942879 16.140871
2004-04-29 08:25:52 51°10.571 2°41.287 12.070529 3.926018 33.964563 17.691503
2004-04-29 08:25:58 51°10.564 2°41.255 12.057621 3.926651 33.98066 19.950033
2004-04-29 08:26:02 51°10.559 2°41.234 12.055621 3.927178 33.999322 21.736631
2004-04-29 08:26:08 51°10.551 2°41.202 12.039527 3.927705 34.016569 23.995161
2004-04-29 08:26:12 51°10.546 2°41.181 12.044665 3.927706 34.02301 24.905315
2004-04-29 08:26:18 51°10.539 2°41.149 12.044665 3.927706 34.02301 24.905315
2004-04-29 08:26:23 51°10.532 2°41.123 12.020336 3.928022 34.031793 26.017725
2004-04-29 08:26:27 51°10.527 2°41.102 12.024293 3.928233 34.043859 27.939161
2004-04-29 08:26:32 51°10.521 2°41.076 12.018517 3.928655 34.053669 28.781896
2004-04-29 08:26:37 51°10.514 2°41.049 12.001731 3.928022 34.054006 29.928016
2004-04-29 08:26:43 51°10.507 2°41.018 12.00619 3.928655 34.065861 31.984289
2004-04-29 08:26:47 51°10.502 2°40.997 12.00619 3.928655 34.065861 31.984289
2004-04-29 08:26:52 51°10.495 2°40.971 12.004916 3.928233 34.070393 33.838306
2004-04-29 08:26:58 51°10.488 2°40.939 12.000776 3.92855 34.079196 35.692324
2004-04-29 08:27:02 51°10.483 2°40.918 11.99609 3.928339 34.08362 36.737315
2004-04-29 08:27:08 51°10.476 2°40.887 11.989765 3.928023 34.087744 39.332939
2004-04-29 08:27:12 51°10.47 2°40.866 11.983576 3.927812 34.08714 40.344221
2004-04-29 08:27:18 51°10.463 2°40.834 11.983576 3.927812 34.08714 40.344221
2004-04-29 08:27:22 51°10.458 2°40.813 11.987535 3.927496 34.086953 41.052118
2004-04-29 08:27:28 51°10.45 2°40.782 11.977251 3.927179 34.087485 41.186956
2004-04-29 08:27:32 51°10.445 2°40.761 11.977023 3.926863 34.088018 41.321794
2004-04-29 08:27:38 51°10.438 2°40.729 11.969377 3.926758 34.09203 41.220665
2004-04-29 08:27:42 51°10.433 2°40.708 11.970241 3.926336 34.090823 41.321794
2004-04-29 08:27:47 51°10.427 2°40.681 11.970241 3.926336 34.090823 41.321794
2004-04-29 08:27:52 51°10.421 2°40.655 11.960682 3.926126 34.092377 40.849862
2004-04-29 08:27:57 51°10.415 2°40.629 11.954582 3.925493 34.091285 41.726306
2004-04-29 08:28:00 51°10.412 2°40.613 11.947661 3.925493 34.094163 40.883571
2004-04-29 08:28:08 51°10.402 2°40.57 11.945385 3.924755 34.090611 41.018409
2004-04-29 08:28:12 51°10.397 2°40.549 11.943245 3.924439 34.091145 40.883571
2004-04-29 08:28:18 51°10.39 2°40.518 11.943245 3.924439 34.091145 40.883571
2004-04-29 08:28:23 51°10.383 2°40.491 11.939829 3.924545 34.097924 41.760016
2004-04-29 08:28:27 51°10.378 2°40.47 11.933636 3.924334 34.10164 42.771298
2004-04-29 08:28:32 51°10.372 2°40.444 11.936869 3.924018 34.104336 43.849999
2004-04-29 08:28:37 51°10.366 2°40.417 11.936778 3.924229 34.108541 44.423059
2004-04-29 08:28:43 51°10.359 2°40.385 11.934365 3.923596 34.105291 43.445486
2004-04-29 08:28:48 51°10.353 2°40.359 11.934365 3.923596 34.105291 43.445486
2004-04-29 08:28:52 51°10.347 2°40.338 11.93063 3.923491 34.10643 44.659024
2004-04-29 08:28:58 51°10.34 2°40.306 11.923115 3.923385 34.109011 43.546614
2004-04-29 08:29:02 51°10.335 2°40.285 11.922477 3.922964 34.106363 44.456768
2004-04-29 08:29:08 51°10.327 2°40.254 11.925575 3.92328 34.110871 44.35564
2004-04-29 08:29:12 51°10.322 2°40.233 11.93022 3.923175 34.11057 43.883708
2004-04-29 08:29:18 51°10.314 2°40.201 11.93022 3.923175 34.11057 43.883708
2004-04-29 08:29:22 51°10.309 2°40.18 11.922842 3.923175 34.114895 43.074683
2004-04-29 08:29:28 51°10.301 2°40.148 11.927806 3.923175 34.116337 43.512905
2004-04-29 08:29:32 51°10.296 2°40.127 11.923844 3.923491 34.120846 43.378067
2004-04-29 08:29:38 51°10.288 2°40.096 11.923479 3.923175 34.119221 43.142101
2004-04-29 08:29:42 51°10.283 2°40.074 11.931495 3.923385 34.120545 43.310648
2004-04-29 08:29:47 51°10.277 2°40.048 11.931495 3.923385 34.120545 43.310648
2004-04-29 08:29:52 51°10.27 2°40.022 11.933044 3.92328 34.119522 43.20952
2004-04-29 08:29:57 51°10.263 2°39.996 11.920883 3.923491 34.120846 41.726306
2004-04-29 08:30:03 51°10.255 2°39.965 11.928535 3.924123 34.127703 41.254375
2004-04-29 08:30:07 51°10.25 2°39.944 11.927396 3.923596 34.12259 39.905999
2004-04-29 08:30:12 51°10.244 2°39.917 11.929947 3.923913 34.123494 40.613896
2004-04-29 08:30:18 51°10.236 2°39.886 11.929947 3.923913 34.123494 40.613896
2004-04-29 08:30:22 51°10.231 2°39.865 11.92849 3.924334 34.127584 39.83858
2004-04-29 08:30:27 51°10.224 2°39.839 11.931814 3.92444 34.128607 40.108255
2004-04-29 08:30:32 51°10.217 2°39.813 11.935139 3.924334 34.129748 39.400358
2004-04-29 08:30:38 51°10.21 2°39.781 11.93696 3.924967 34.134441 39.467777
2004-04-29 08:30:42 51°10.204 2°39.76 11.945521 3.924861 34.133418 39.096973
2004-04-29 08:30:47 51°10.198 2°39.734 11.945521 3.924861 34.133418 39.096973
2004-04-29 08:30:52 51°10.191 2°39.708 11.941195 3.925177 34.135043 37.950853
2004-04-29 08:30:58 51°10.184 2°39.676 11.941195 3.92581 34.1419 36.973281
2004-04-29 08:31:02 51°10.179 2°39.655 11.9386 3.926126 34.142803 35.490067
2004-04-29 08:31:08 51°10.171 2°39.624 11.941287 3.926653 34.145751 34.006853
2004-04-29 08:31:12 51°10.166 2°39.603 11.938964 3.926864 34.14491 34.040563
2004-04-29 08:31:18 51°10.158 2°39.571 11.938964 3.926864 34.14491 34.040563
2004-04-29 08:31:23 51°10.151 2°39.546 11.941514 3.927391 34.148579 32.759606
2004-04-29 08:31:28 51°10.145 2°39.52 11.941195 3.927391 34.149301 32.017999
2004-04-29 08:31:32 51°10.139 2°39.499 11.945203 3.927602 34.149903 30.332529
2004-04-29 08:31:38 51°10.131 2°39.468 11.946477 3.928129 34.155736 29.321247
2004-04-29 08:31:42 51°10.126 2°39.447 11.946569 3.927918 34.154413 28.512221
2004-04-29 08:31:48 51°10.118 2°39.417 11.946569 3.927918 34.154413 28.512221
2004-04-29 08:31:52 51°10.112 2°39.396 11.951349 3.92834 34.158503 27.197554
2004-04-29 08:31:57 51°10.106 2°39.371 11.954901 3.928445 34.15736 25.444665
2004-04-29 08:32:03 51°10.097 2°39.34 11.959681 3.928129 34.152128 25.309828
2004-04-29 08:32:06 51°10.093 2°39.324 11.95786 3.928234 34.153151 23.961452
2004-04-29 08:32:12 51°10.085 2°39.294 11.964324 3.928234 34.150265 23.051298
2004-04-29 08:32:18 51°10.077 2°39.263 11.964324 3.928234 34.150265 23.051298
2004-04-29 08:32:21 51°10.073 2°39.247 11.959817 3.928761 34.153933 22.242272
2004-04-29 08:32:27 51°10.066 2°39.216 11.964233 3.928761 34.149605 21.736631
2004-04-29 08:32:32 51°10.059 2°39.19 11.967556 3.928761 34.146721 21.23099
2004-04-29 08:32:38 51°10.052 2°39.159 11.973519 3.929605 34.154176 20.759059
2004-04-29 08:32:42 51°10.047 2°39.138 11.97279 3.929605 34.152012 20.65793
2004-04-29 08:32:48 51°10.04 2°39.106 11.97279 3.929605 34.152012 20.65793
2004-04-29 08:32:52 51°10.035 2°39.085 11.96965 3.929921 34.154357 20.287127
2004-04-29 08:32:58 51°10.027 2°39.054 11.974019 3.930237 34.15598 20.084871
2004-04-29 08:33:03 51°10.021 2°39.027 11.978616 3.930342 34.154839 19.848905
2004-04-29 08:33:07 51°10.016 2°39.006 11.981255 3.930342 34.150513 19.815195
2004-04-29 08:33:12 51°10.01 2°38.981 11.981301 3.930659 34.153578 19.848905
2004-04-29 08:33:17 51°10.004 2°38.954 11.981301 3.930659 34.153578 19.848905
2004-04-29 08:33:23 51°9.996 2°38.923 11.981438 3.930869 34.155622 19.410683
2004-04-29 08:33:28 51°9.99 2°38.897 11.982393 3.930764 34.153158 19.242136
2004-04-29 08:33:30 51°9.988 2°38.887 11.983212 3.931186 34.152919 19.174717
2004-04-29 08:33:38 51°9.978 2°38.845 11.986944 3.931396 34.153521 18.938751
2004-04-29 08:33:42 51°9.973 2°38.824 11.988218 3.931502 34.153822 19.141007
2004-04-29 08:33:48 51°9.966 2°38.793 11.988218 3.931502 34.153822 19.141007
2004-04-29 08:33:52 51°9.961 2°38.772 11.989265 3.931502 34.15238 18.43311
2004-04-29 08:33:58 51°9.953 2°38.74 11.993678 3.931818 34.154003 18.871332
2004-04-29 08:34:03 51°9.948 2°38.714 11.993132 3.931923 34.153583 18.534238
2004-04-29 08:34:08 51°9.941 2°38.688 11.997546 3.932029 34.152443 18.466819
2004-04-29 08:34:12 51°9.937 2°38.667 11.999184 3.929921 34.132016 18.331982
2004-04-29 08:34:17 51°9.93 2°38.641 11.999184 3.929921 34.132016 18.331982
2004-04-29 08:34:22 51°9.924 2°38.614 12.005143 3.933083 34.160494 18.163435
2004-04-29 08:34:28 51°9.916 2°38.583 12.009602 3.932872 34.157731 17.893759
2004-04-29 08:34:32 51°9.911 2°38.562 12.007645 3.933188 34.158633 17.590375
2004-04-29 08:34:38 51°9.904 2°38.531 12.006781 3.93361 34.160556 17.725212
2004-04-29 08:34:42 51°9.899 2°38.51 12.009556 3.933821 34.158995 17.489247
2004-04-29 08:34:48 51°9.892 2°38.478 12.009556 3.933821 34.158995 17.489247
2004-04-29 08:34:52 51°9.888 2°38.457 12.00851 3.934032 34.158156 17.590375
2004-04-29 08:34:58 51°9.881 2°38.426 12.011421 3.934453 34.160079 17.624084
2004-04-29 08:35:03 51°9.875 2°38.399 12.017562 3.934664 34.15996 17.556665
2004-04-29 08:35:07 51°9.87 2°38.378 12.014878 3.934559 34.158939 17.253281
2004-04-29 08:35:12 51°9.864 2°38.352 12.018153 3.934875 34.160561 17.084734
2004-04-29 08:35:17 51°9.857 2°38.325 12.018153 3.934875 34.160561 17.084734
2004-04-29 08:35:23 51°9.85 2°38.294 12.020382 3.93498 34.160861 17.118443
2004-04-29 08:35:27 51°9.845 2°38.273 12.017789 3.93498 34.15798 17.28699
2004-04-29 08:35:32 51°9.838 2°38.247 12.024293 3.935402 34.161343 16.916187
2004-04-29 08:35:37 51°9.832 2°38.221 12.026385 3.935613 34.161944 17.522956
2004-04-29 08:35:43 51°9.824 2°38.19 12.030251 3.935507 34.159483 17.489247
2004-04-29 08:35:48 51°9.817 2°38.164 12.030251 3.935507 34.159483 17.489247
2004-04-29 08:35:52 51°9.811 2°38.143 12.035662 3.935929 34.162126 17.388118
2004-04-29 08:35:58 51°9.803 2°38.112 12.038345 3.935823 34.160385 17.657794
2004-04-29 08:36:03 51°9.797 2°38.086 12.040073 3.936034 34.160266 17.691503
2004-04-29 08:36:07 51°9.791 2°38.065 12.041573 3.935929 34.156366 17.657794
2004-04-29 08:36:12 51°9.785 2°38.039 12.044983 3.936456 34.158589 17.624084
2004-04-29 08:36:18 51°9.777 2°38.007 12.044983 3.936456 34.158589 17.624084
2004-04-29 08:36:22 51°9.772 2°37.987 12.04612 3.937299 34.162433 17.388118
2004-04-29 08:36:27 51°9.766 2°37.961 12.046983 3.937721 34.163635 17.354409
2004-04-29 08:36:32 51°9.759 2°37.935 12.049347 3.937615 34.160455 17.624084
2004-04-29 08:36:37 51°9.753 2°37.909 12.053303 3.938142 34.162678 17.354409
2004-04-29 08:36:43 51°9.745 2°37.878 12.056212 3.938142 34.161238 17.522956
2004-04-29 08:36:48 51°9.739 2°37.852 12.056212 3.938142 34.161238 17.522956
2004-04-29 08:36:52 51°9.733 2°37.831 12.055303 3.93888 34.16694 17.893759
2004-04-29 08:36:58 51°9.726 2°37.8 12.05503 3.938459 34.16214 17.893759
2004-04-29 08:37:03 51°9.719 2°37.774 12.056621 3.93888 34.163342 18.230853
2004-04-29 08:37:08 51°9.714 2°37.748 12.05603 3.939196 34.164243 18.331982
2004-04-29 08:37:12 51°9.708 2°37.727 12.056939 3.939091 34.161784 18.837623
2004-04-29 08:37:18 51°9.701 2°37.696 12.056939 3.939091 34.161784 18.837623
2004-04-29 08:37:22 51°9.695 2°37.675 12.062212 3.939302 34.162385 18.466819
2004-04-29 08:37:27 51°9.69 2°37.649 12.059803 3.939934 34.168504 18.938751
2004-04-29 08:37:32 51°9.683 2°37.623 12.062576 3.940251 34.170844 19.141007
2004-04-29 08:37:36 51°9.678 2°37.602 12.067075 3.940356 34.171145 19.680358
2004-04-29 08:37:43 51°9.67 2°37.566 12.066394 3.940251 34.168686 19.848905
2004-04-29 08:37:47 51°9.664 2°37.545 12.066394 3.940251 34.168686 19.848905
2004-04-29 08:37:49 51°9.662 2°37.535 12.073211 3.940356 34.167548 20.556802
2004-04-29 08:37:57 51°9.651 2°37.493 12.072302 3.940461 34.169287 20.590512
2004-04-29 08:38:03 51°9.643 2°37.461 12.07312 3.940883 34.170488 20.725349
2004-04-29 08:38:08 51°9.636 2°37.436 12.079437 3.940988 34.16935 21.298409
2004-04-29 08:38:12 51°9.631 2°37.415 12.084162 3.941094 34.168931 21.2647
2004-04-29 08:38:18 51°9.622 2°37.384 12.084162 3.941094 34.168931 21.2647
2004-04-29 08:38:23 51°9.615 2°37.358 12.080754 3.941515 34.170132 21.298409
2004-04-29 08:38:26 51°9.611 2°37.342 12.086162 3.941726 34.172171 21.938888
2004-04-29 08:38:32 51°9.602 2°37.311 12.087207 3.942042 34.172353 21.837759
2004-04-29 08:38:38 51°9.594 2°37.28 12.09125 3.942359 34.171815 22.040016
2004-04-29 08:38:42 51°9.588 2°37.26 12.090751 3.942675 34.172716 21.972597
2004-04-29 08:38:48 51°9.58 2°37.229 12.090751 3.942675 34.172716 21.972597
2004-04-29 08:38:52 51°9.575 2°37.208 12.090296 3.942675 34.171997 22.040016
2004-04-29 08:38:58 51°9.567 2°37.177 12.092341 3.942886 34.170441 22.275982
2004-04-29 08:39:02 51°9.561 2°37.156 12.100654 3.942886 34.169722 22.208563
2004-04-29 08:39:08 51°9.553 2°37.125 12.098201 3.943202 34.170623 22.107435
2004-04-29 08:39:12 51°9.548 2°37.104 12.104425 3.943729 34.173561 22.107435
2004-04-29 08:39:18 51°9.54 2°37.073 12.104425 3.943729 34.173561 22.107435
2004-04-29 08:39:22 51°9.534 2°37.052 12.106514 3.943413 34.169786 22.242272
2004-04-29 08:39:28 51°9.527 2°37.02 12.104516 3.943729 34.170686 22.242272
2004-04-29 08:39:32 51°9.521 2°37 12.102199 3.94415 34.172606 21.905178
2004-04-29 08:39:38 51°9.513 2°36.968 12.101836 3.944467 34.172788 21.466956
2004-04-29 08:39:42 51°9.508 2°36.948 12.098065 3.944994 34.175726 20.995024
2004-04-29 08:39:47 51°9.501 2°36.921 12.098065 3.944994 34.175726 20.995024
2004-04-29 08:39:52 51°9.494 2°36.896 12.095748 3.945205 34.175608 20.287127
2004-04-29 08:39:58 51°9.486 2°36.864 12.092841 3.945415 34.176927 19.950033
2004-04-29 08:40:02 51°9.481 2°36.843 12.089887 3.945099 34.175308 19.781486
2004-04-29 08:40:08 51°9.472 2°36.813 12.092205 3.945415 34.179083 19.781486
2004-04-29 08:40:12 51°9.467 2°36.791 12.090751 3.944994 34.178601 19.983742
2004-04-29 08:40:18 51°9.459 2°36.76 12.090751 3.944994 34.178601 19.983742
2004-04-29 08:40:23 51°9.452 2°36.734 12.086025 3.944783 34.177282 20.523093
2004-04-29 08:40:28 51°9.445 2°36.708 12.087616 3.945416 34.185553 20.860187
2004-04-29 08:40:31 51°9.441 2°36.693 12.083072 3.944888 34.182614 21.163571
2004-04-29 08:40:38 51°9.431 2°36.657 12.075529 3.944888 34.182614 21.601794
2004-04-29 08:40:43 51°9.424 2°36.63 12.078482 3.944994 34.185072 22.511947
2004-04-29 08:40:48 51°9.417 2°36.605 12.078482 3.944994 34.185072 22.511947
2004-04-29 08:40:52 51°9.412 2°36.584 12.074256 3.944888 34.184772 22.91646
2004-04-29 08:40:58 51°9.404 2°36.552 12.071984 3.944678 34.184891 23.354683
2004-04-29 08:41:02 51°9.398 2°36.531 12.068484 3.944889 34.188367 24.129999
2004-04-29 08:41:08 51°9.39 2°36.5 12.068802 3.944678 34.190645 24.871606
2004-04-29 08:41:12 51°9.385 2°36.479 12.064167 3.944467 34.190045 25.276118
2004-04-29 08:41:16 51°9.379 2°36.458 12.064167 3.944467 34.190045 25.276118
2004-04-29 08:41:22 51°9.372 2°36.426 12.060121 3.944678 34.193523 26.2874
2004-04-29 08:41:28 51°9.363 2°36.395 12.059303 3.944256 34.193762 27.264973
2004-04-29 08:41:32 51°9.358 2°36.374 12.052393 3.944151 34.194182 27.838033
2004-04-29 08:41:37 51°9.351 2°36.347 12.053439 3.944256 34.196641 28.916734
2004-04-29 08:41:42 51°9.345 2°36.321 12.04662 3.944151 34.199221 30.062853
2004-04-29 08:41:48 51°9.336 2°36.29 12.04662 3.944151 34.199221 30.062853
2004-04-29 08:41:52 51°9.331 2°36.269 12.044619 3.944045 34.199641 31.512358
2004-04-29 08:41:58 51°9.323 2°36.237 12.040664 3.94394 34.201501 32.287674
2004-04-29 08:42:00 51°9.32 2°36.227 12.041073 3.943729 34.203062 33.872016
2004-04-29 08:42:08 51°9.309 2°36.185 12.032024 3.943518 34.202462 35.32152
2004-04-29 08:42:12 51°9.304 2°36.164 12.030751 3.94394 34.210865 36.096836
2004-04-29 08:42:18 51°9.296 2°36.132 12.030751 3.94394 34.210865 36.096836
2004-04-29 08:42:22 51°9.29 2°36.111 12.028477 3.943202 34.205885 37.242956
2004-04-29 08:42:28 51°9.282 2°36.08 12.022656 3.943413 34.209366 38.085691
2004-04-29 08:42:32 51°9.276 2°36.059 12.017152 3.943202 34.210208 40.276802
2004-04-29 08:42:38 51°9.268 2°36.028 12.018017 3.942886 34.212913 41.658888
2004-04-29 08:42:42 51°9.263 2°36.007 12.017653 3.942992 34.215375 42.333076
2004-04-29 08:42:48 51°9.255 2°35.975 12.017653 3.942992 34.215375 42.333076
2004-04-29 08:42:52 51°9.25 2°35.954 12.012649 3.942675 34.216639 43.445486
2004-04-29 08:42:58 51°9.241 2°35.923 12.007373 3.942675 34.219524 44.085965
2004-04-29 08:43:03 51°9.234 2°35.897 12.00164 3.942254 34.220489 44.659024
2004-04-29 08:43:08 51°9.228 2°35.87 12.001504 3.942148 34.22019 44.692734
2004-04-29 08:43:10 51°9.225 2°35.86 11.99882 3.942043 34.222054 45.299503
2004-04-29 08:43:18 51°9.214 2°35.818 11.99882 3.942043 34.222054 45.299503
2004-04-29 08:43:22 51°9.209 2°35.797 11.993314 3.941621 34.220135 46.782717
2004-04-29 08:43:28 51°9.2 2°35.766 11.986534 3.941938 34.227527 46.445623
2004-04-29 08:43:31 51°9.196 2°35.75 11.984077 3.941411 34.225308 45.670306
2004-04-29 08:43:38 51°9.186 2°35.714 11.981438 3.941305 34.225731 45.838853
2004-04-29 08:43:42 51°9.18 2°35.693 11.97634 3.940778 34.224955 46.344494
2004-04-29 08:43:48 51°9.172 2°35.662 11.97634 3.940778 34.224955 46.344494
2004-04-29 08:43:52 51°9.166 2°35.641 11.971925 3.940462 34.226222 46.61417
2004-04-29 08:43:58 51°9.157 2°35.61 11.974565 3.940146 34.22749 46.984973
2004-04-29 08:44:02 51°9.152 2°35.589 11.964688 3.940251 34.230678 47.895127
2004-04-29 08:44:07 51°9.144 2°35.564 11.967419 3.93983 34.227314 47.423195
2004-04-29 08:44:12 51°9.137 2°35.538 11.961183 3.939514 34.230027 48.83899
2004-04-29 08:44:16 51°9.132 2°35.517 11.961183 3.939514 34.230027 48.83899
2004-04-29 08:44:23 51°9.122 2°35.481 11.956403 3.939092 34.230274 47.928836
2004-04-29 08:44:27 51°9.116 2°35.46 11.952579 3.938565 34.226609 49.243503
2004-04-29 08:44:32 51°9.109 2°35.434 11.957177 3.938987 34.233587 49.580597
2004-04-29 08:44:38 51°9.101 2°35.403 11.948891 3.93867 34.232689 49.445759
2004-04-29 08:44:43 51°9.093 2°35.377 11.945248 3.938354 34.233236 49.277212
2004-04-29 08:44:47 51°9.088 2°35.356 11.945248 3.938354 34.233236 49.277212
2004-04-29 08:44:52 51°9.081 2°35.331 11.945248 3.938038 34.235229 49.041247
2004-04-29 08:44:56 51°9.075 2°35.31 11.938418 3.937933 34.233484 48.670443
2004-04-29 08:45:03 51°9.066 2°35.274 11.936368 3.937406 34.231987 49.41205
2004-04-29 08:45:06 51°9.062 2°35.26 11.933681 3.937616 34.236924 48.973828
2004-04-29 08:45:12 51°9.055 2°35.234 11.928854 3.936984 34.234404 48.771571
2004-04-29 08:45:18 51°9.049 2°35.211 11.928854 3.936984 34.234404 48.771571
2004-04-29 08:45:22 51°9.045 2°35.196 11.92357 3.936668 34.233506 49.176084
2004-04-29 08:45:27 51°9.04 2°35.179 11.927897 3.936562 34.234653 47.692871
2004-04-29 08:45:32 51°9.036 2°35.163 11.915189 3.936668 34.239293 46.883845
2004-04-29 08:45:38 51°9.031 2°35.145 11.904528 3.936141 34.237796 47.827708
2004-04-29 08:45:42 51°9.027 2°35.134 11.908674 3.935825 34.236174 47.692871
2004-04-29 08:45:48 51°9.023 2°35.118 11.908674 3.935825 34.236174 47.692871
2004-04-29 08:45:52 51°9.02 2°35.109 11.899926 3.935508 34.235999 47.18723
2004-04-29 08:45:58 51°9.016 2°35.095 11.895142 3.935614 34.240641 47.895127
2004-04-29 08:46:03 51°9.012 2°35.085 11.893274 3.935087 34.240591 49.041247
2004-04-29 08:46:07 51°9.009 2°35.077 11.883931 3.93456 34.241266 48.906409
2004-04-29 08:46:12 51°9.006 2°35.068 11.879556 3.934033 34.240493 49.883982
2004-04-29 08:46:17 51°9.003 2°35.06 11.879556 3.934033 34.240493 49.883982
2004-04-29 08:46:23 51°9 2°35.05 11.88343 3.933717 34.243216 49.546888
2004-04-29 08:46:27 51°8.997 2°35.044 11.89095 3.932768 34.238349 49.513178
2004-04-29 08:46:32 51°8.994 2°35.038 11.883567 3.932873 34.243719 49.546888
2004-04-29 08:46:37 51°8.992 2°35.033 11.879054 3.932241 34.240474 49.176084
2004-04-29 08:46:43 51°8.99 2°35.029 11.878143 3.932241 34.243372 49.546888
2004-04-29 08:46:48 51°8.989 2°35.027 11.878143 3.932241 34.243372 49.546888
2004-04-29 08:46:52 51°8.988 2°35.027 11.873357 3.931503 34.237653 49.782853
2004-04-29 08:46:58 51°8.988 2°35.027 11.87755 3.931398 34.236629 49.883982
2004-04-29 08:47:02 51°8.988 2°35.028 11.869026 3.931398 34.238802 48.131093
2004-04-29 08:47:07 51°8.989 2°35.029 11.871351 3.931187 34.238203 49.074956
2004-04-29 08:47:12 51°8.99 2°35.031 11.87518 3.931398 34.242426 48.805281
2004-04-29 08:47:18 51°8.991 2°35.032 11.87518 3.931398 34.242426 48.805281
2004-04-29 08:47:23 51°8.991 2°35.034 11.868297 3.930976 34.239054 48.400768
2004-04-29 08:47:28 51°8.992 2°35.035 11.872354 3.93066 34.237431 49.142375
2004-04-29 08:47:32 51°8.993 2°35.037 11.863829 3.93066 34.239605 48.468187
2004-04-29 08:47:38 51°8.994 2°35.038 11.863829 3.93066 34.24033 50.153657
2004-04-29 08:47:42 51°8.994 2°35.039 11.863464 3.93066 34.241055 50.086238
2004-04-29 08:47:48 51°8.995 2°35.041 11.863464 3.93066 34.241055 50.086238
2004-04-29 08:47:54 51°8.996 2°35.043 11.867567 3.930554 34.24148 50.018819
2004-04-29 08:47:58 51°8.996 2°35.044 11.864513 3.930133 34.238108 49.917691
2004-04-29 08:48:03 51°8.997 2°35.045 11.862781 3.930027 34.239983 48.83899
2004-04-29 08:48:08 51°8.997 2°35.047 11.867203 3.930238 34.243482 48.636734
2004-04-29 08:48:14 51°8.998 2°35.048 11.862826 3.930027 34.242158 49.513178
2004-04-29 08:48:18 51°8.998 2°35.049 11.862826 3.930027 34.242158 49.513178
2004-04-29 08:48:23 51°8.999 2°35.05 11.868023 3.929606 34.23951 49.850272
2004-04-29 08:48:28 51°9 2°35.052 11.86237 3.929817 34.240834 49.816563
2004-04-29 08:48:34 51°9 2°35.053 11.866565 3.929606 34.24096 51.737999
2004-04-29 08:48:38 51°9 2°35.054 11.864012 3.929922 34.241859 51.737999
2004-04-29 08:48:43 51°9.001 2°35.056 11.862781 3.9295 34.237035 52.277349
2004-04-29 08:48:48 51°9.001 2°35.057 11.862781 3.9295 34.237035 52.277349
2004-04-29 08:48:53 51°9.002 2°35.058 11.862963 3.929922 34.243309 52.412187
2004-04-29 08:48:58 51°9.002 2°35.06 11.863647 3.929711 34.24126 52.8167
2004-04-29 08:49:03 51°9.002 2°35.061 11.860501 3.929395 34.238186 52.884118
2004-04-29 08:49:08 51°9.003 2°35.062 11.862416 3.929817 34.243735 53.794272
2004-04-29 08:49:12 51°9.003 2°35.063 11.862279 3.930133 34.245359 53.423469
2004-04-29 08:49:18 51°9.003 2°35.064 11.862279 3.930133 34.245359 53.423469
2004-04-29 08:49:22 51°9.003 2°35.065 11.858176 3.929922 34.24476 53.389759
2004-04-29 08:49:27 51°9.003 2°35.066 11.8631 3.929711 34.24126 52.850409
2004-04-29 08:49:32 51°9.002 2°35.067 11.864194 3.929922 34.245485 52.176221
2004-04-29 08:49:38 51°9.002 2°35.068 11.864012 3.929606 34.242411 53.086375
2004-04-29 08:49:42 51°9.002 2°35.069 11.867613 3.929606 34.242411 52.985247
2004-04-29 08:49:48 51°9.002 2°35.07 11.867613 3.929606 34.242411 52.985247
2004-04-29 08:49:52 51°9.001 2°35.071 11.860729 3.9295 34.242111 52.176221
2004-04-29 08:49:57 51°9 2°35.072 11.866017 3.929817 34.24446 52.951537
2004-04-29 08:50:03 51°8.999 2°35.073 11.862598 3.929817 34.243735 52.850409
2004-04-29 08:50:08 51°8.998 2°35.074 11.865562 3.929922 34.243309 51.973965
2004-04-29 08:50:12 51°8.997 2°35.074 11.861504 3.929922 34.24476 53.120084
2004-04-29 08:50:18 51°8.996 2°35.075 11.861504 3.929922 34.24476 53.120084
2004-04-29 08:50:23 51°8.995 2°35.076 11.859133 3.929817 34.24301 53.558306
2004-04-29 08:50:28 51°8.994 2°35.077 11.85927 3.929817 34.243735 53.423469
2004-04-29 08:50:32 51°8.993 2°35.077 11.862826 3.929711 34.24271 52.142512
2004-04-29 08:50:37 51°8.992 2°35.078 11.869528 3.930028 34.245059 53.423469
2004-04-29 08:50:43 51°8.991 2°35.079 11.862416 3.929606 34.242411 52.513315
2004-04-29 08:50:48 51°8.99 2°35.079 11.862416 3.929606 34.242411 52.513315
2004-04-29 08:50:52 51°8.989 2°35.08 11.861231 3.929817 34.245911 53.693144
2004-04-29 08:50:58 51°8.987 2°35.08 11.857993 3.929922 34.24621 54.704426
2004-04-29 08:51:02 51°8.986 2°35.08 11.861732 3.929606 34.243136 55.917965
2004-04-29 08:51:07 51°8.985 2°35.081 11.863282 3.929711 34.24271 55.985383
2004-04-29 08:51:12 51°8.983 2°35.081 11.857264 3.929606 34.243136 56.861828
2004-04-29 08:51:18 51°8.981 2°35.081 11.857264 3.929606 34.243136 56.861828
2004-04-29 08:51:22 51°8.979 2°35.081 11.86155 3.929606 34.243136 57.940529
2004-04-29 08:51:28 51°8.977 2°35.08 11.863237 3.9295 34.244287 58.951811
2004-04-29 08:51:32 51°8.975 2°35.08 11.861139 3.929184 34.241938 59.255195
2004-04-29 08:51:38 51°8.973 2°35.079 11.858951 3.929395 34.242537 59.963093
2004-04-29 08:51:42 51°8.971 2°35.078 11.860501 3.92929 34.242963 59.01923
2004-04-29 08:51:48 51°8.969 2°35.077 11.860501 3.92929 34.242963 59.01923
2004-04-29 08:51:52 51°8.967 2°35.076 11.854528 3.929606 34.245312 59.659708
2004-04-29 08:51:57 51°8.965 2°35.075 11.862735 3.929184 34.239762 58.918101
2004-04-29 08:52:03 51°8.962 2°35.073 11.854893 3.929711 34.247062 58.850683
2004-04-29 08:52:08 51°8.96 2°35.072 11.856078 3.92929 34.242963 57.771982
2004-04-29 08:52:12 51°8.959 2°35.071 11.856854 3.92929 34.242963 58.884392
2004-04-29 08:52:18 51°8.956 2°35.069 11.856854 3.92929 34.242963 58.884392
2004-04-29 08:52:22 51°8.955 2°35.067 11.856398 3.929184 34.242664 58.345042
2004-04-29 08:52:28 51°8.952 2°35.065 11.862507 3.92929 34.242963 57.8394
2004-04-29 08:52:32 51°8.951 2°35.063 11.862553 3.928973 34.242065 56.861828
2004-04-29 08:52:38 51°8.949 2°35.06 11.853024 3.92929 34.245139 55.648289
2004-04-29 08:52:42 51°8.947 2°35.058 11.856352 3.929501 34.247914 54.401042
2004-04-29 08:52:48 51°8.945 2°35.055 11.856352 3.929501 34.247914 54.401042
2004-04-29 08:52:52 51°8.944 2°35.052 11.849968 3.929184 34.243389 52.917828
2004-04-29 08:52:58 51°8.942 2°35.049 11.853343 3.929079 34.242364 52.648153
2004-04-29 08:53:02 51°8.94 2°35.047 11.847552 3.929395 34.243988 52.614443
2004-04-29 08:53:08 51°8.939 2°35.043 11.843539 3.929079 34.243089 51.164939
2004-04-29 08:53:12 51°8.938 2°35.04 11.850333 3.929184 34.245565 51.198648
2004-04-29 08:53:18 51°8.936 2°35.037 11.850333 3.929184 34.245565 51.198648
2004-04-29 08:53:23 51°8.935 2°35.033 11.846776 3.929184 34.247742 50.153657
2004-04-29 08:53:28 51°8.934 2°35.03 11.846776 3.928974 34.246417 49.648016
2004-04-29 08:53:32 51°8.933 2°35.027 11.843949 3.928763 34.247996 49.108665
2004-04-29 08:53:38 51°8.932 2°35.022 11.843675 3.928552 34.246671 48.097383
2004-04-29 08:53:42 51°8.931 2°35.019 11.842171 3.928552 34.246671 47.625452
2004-04-29 08:53:48 51°8.93 2°35.014 11.842171 3.928552 34.246671 47.625452
2004-04-29 08:53:52 51°8.93 2°35.011 11.84103 3.928236 34.242145 48.063674
2004-04-29 08:53:58 51°8.929 2°35.006 11.838522 3.928763 34.249447 46.749007
2004-04-29 08:54:03 51°8.929 2°35.002 11.838112 3.928552 34.248122 47.288358
2004-04-29 08:54:08 51°8.929 2°34.998 11.83989 3.928236 34.247224 46.782717
2004-04-29 08:54:12 51°8.929 2°34.995 11.838841 3.92813 34.246199 45.872563
2004-04-29 08:54:18 51°8.928 2°34.989 11.838841 3.92813 34.246199 45.872563
2004-04-29 08:54:22 51°8.929 2°34.986 11.840027 3.928025 34.246625 45.400631
2004-04-29 08:54:28 51°8.929 2°34.981 11.837291 3.928025 34.248803 45.400631
2004-04-29 08:54:31 51°8.929 2°34.978 11.83615 3.92813 34.249828 44.018546
2004-04-29 08:54:38 51°8.93 2°34.972 11.841578 3.927814 34.247478 44.692734
2004-04-29 08:54:43 51°8.93 2°34.968 11.83761 3.927709 34.245727 43.917418
2004-04-29 08:54:48 51°8.931 2°34.964 11.83761 3.927709 34.245727 43.917418
2004-04-29 08:54:52 51°8.931 2°34.961 11.8346 3.927603 34.245428 44.220802
2004-04-29 08:54:58 51°8.932 2°34.955 11.836242 3.927709 34.247179 43.24323
2004-04-29 08:55:02 51°8.933 2°34.952 11.832958 3.927498 34.243677 43.411777
2004-04-29 08:55:08 51°8.934 2°34.947 11.829628 3.927709 34.245727 43.344358
2004-04-29 08:55:12 51°8.935 2°34.944 11.834052 3.927603 34.245428 42.501623
2004-04-29 08:55:16 51°8.935 2°34.94 11.834052 3.927603 34.245428 42.501623
2004-04-29 08:55:22 51°8.937 2°34.935 11.830495 3.928025 34.250255 41.995982
2004-04-29 08:55:28 51°8.938 2°34.93 11.834828 3.927603 34.247605 42.299366
2004-04-29 08:55:32 51°8.939 2°34.927 11.829947 3.927182 34.245682 42.130819
2004-04-29 08:55:38 51°8.94 2°34.922 11.829947 3.927393 34.248458 42.299366
2004-04-29 08:55:42 51°8.941 2°34.918 11.830221 3.927287 34.247433 42.67017
2004-04-29 08:55:48 51°8.942 2°34.913 11.830221 3.927287 34.247433 42.67017
2004-04-29 08:55:52 51°8.943 2°34.91 11.83013 3.927498 34.25021 42.029691
2004-04-29 08:55:58 51°8.944 2°34.905 11.828853 3.927076 34.246108 42.63646
2004-04-29 08:56:03 51°8.945 2°34.9 11.830175 3.927393 34.249911 42.838717
2004-04-29 08:56:07 51°8.946 2°34.897 11.825295 3.927393 34.251363 43.310648
2004-04-29 08:56:12 51°8.947 2°34.892 11.825021 3.926865 34.246961 42.467913
2004-04-29 08:56:18 51°8.948 2°34.887 11.825021 3.927076 34.248286 42.872426
2004-04-29 08:56:22 51°8.949 2°34.884 11.825021 3.927076 34.248286 42.872426
2004-04-29 08:56:28 51°8.95 2°34.878 11.823789 3.926865 34.246961 44.187093
2004-04-29 08:56:32 51°8.95 2°34.875 11.825888 3.926971 34.248713 43.344358
2004-04-29 08:56:38 51°8.952 2°34.87 11.823516 3.926655 34.247815 44.119674
2004-04-29 08:56:42 51°8.952 2°34.866 11.817266 3.926971 34.251618 42.67017
2004-04-29 08:56:48 51°8.953 2°34.861 11.817266 3.926971 34.251618 42.67017
2004-04-29 08:56:52 51°8.954 2°34.858 11.8216 3.926971 34.252344 44.153383
2004-04-29 08:56:58 51°8.955 2°34.853 11.822831 3.926549 34.248241 43.276939
2004-04-29 08:57:02 51°8.955 2°34.849 11.817129 3.92676 34.251019 43.108392
2004-04-29 08:57:08 51°8.956 2°34.844 11.81503 3.926549 34.25042 41.658888
2004-04-29 08:57:12 51°8.956 2°34.84 11.818087 3.926128 34.248496 42.602751
2004-04-29 08:57:18 51°8.957 2°34.835 11.818087 3.926128 34.248496 42.602751
2004-04-29 08:57:23 51°8.957 2°34.83 11.813661 3.926655 34.253625 42.501623
2004-04-29 08:57:28 51°8.958 2°34.826 11.81462 3.926549 34.252599 41.288084
2004-04-29 08:57:32 51°8.958 2°34.822 11.817585 3.926655 34.255078 41.018409
2004-04-29 08:57:38 51°8.959 2°34.817 11.81576 3.926233 34.252428 39.535195
2004-04-29 08:57:42 51°8.959 2°34.813 11.815851 3.926339 34.25418 40.141965
2004-04-29 08:57:47 51°8.959 2°34.809 11.815851 3.926339 34.25418 40.141965
2004-04-29 08:57:52 51°8.96 2°34.804 11.813433 3.926233 34.254607 40.175674
2004-04-29 08:57:56 51°8.96 2°34.8 11.811198 3.926128 34.252128 39.83858
2004-04-29 08:58:03 51°8.961 2°34.794 11.812795 3.926128 34.251402 39.130683
2004-04-29 08:58:06 51°8.961 2°34.791 11.811928 3.926128 34.251402 39.501486
2004-04-29 08:58:12 51°8.962 2°34.785 11.811152 3.926233 34.253154 39.164392
2004-04-29 08:58:18 51°8.962 2°34.779 11.811152 3.926233 34.253154 39.164392
2004-04-29 08:58:23 51°8.963 2°34.774 11.811836 3.926022 34.252555 39.164392
2004-04-29 08:58:27 51°8.963 2°34.77 11.804399 3.926128 34.255035 39.26552
2004-04-29 08:58:32 51°8.964 2°34.765 11.806224 3.925812 34.25341 38.894717
2004-04-29 08:58:38 51°8.964 2°34.76 11.8023 3.925601 34.251358 39.29923
2004-04-29 08:58:42 51°8.965 2°34.756 11.805585 3.926022 34.256189 38.658751
2004-04-29 08:58:48 51°8.965 2°34.75 11.805585 3.926022 34.256189 38.658751
2004-04-29 08:58:52 51°8.966 2°34.746 11.800064 3.926233 34.258241 39.029554
2004-04-29 08:58:58 51°8.966 2°34.74 11.794816 3.926022 34.257642 38.894717
2004-04-29 08:59:03 51°8.967 2°34.734 11.797052 3.925495 34.253965 38.287947
2004-04-29 08:59:08 51°8.967 2°34.729 11.796687 3.925179 34.253067 39.83858
2004-04-29 08:59:12 51°8.968 2°34.725 11.785733 3.92539 34.255119 39.332939
2004-04-29 08:59:18 51°8.968 2°34.719 11.785733 3.92539 34.255119 39.332939
2004-04-29 08:59:22 51°8.968 2°34.715 11.787559 3.925179 34.256701 38.254238
2004-04-29 08:59:28 51°8.969 2°34.709 11.784045 3.924863 34.255803 38.355366
2004-04-29 08:59:32 51°8.969 2°34.705 11.783634 3.924863 34.257257 37.108118
2004-04-29 08:59:38 51°8.97 2°34.699 11.783086 3.924863 34.257984 37.00699
2004-04-29 08:59:43 51°8.97 2°34.694 11.780439 3.924968 34.262646 35.759742
2004-04-29 08:59:48 51°8.97 2°34.689 11.780439 3.924968 34.262646 35.759742
2004-04-29 08:59:52 51°8.971 2°34.685 11.772587 3.924336 34.258669 35.827161
2004-04-29 08:59:58 51°8.971 2°34.678 11.771811 3.924441 34.26406 36.063127
2004-04-29 09:00:03 51°8.971 2°34.673 11.766012 3.924231 34.263461 35.254101
2004-04-29 09:00:07 51°8.971 2°34.669 11.76583 3.924125 34.263162 35.523777
2004-04-29 09:00:12 51°8.971 2°34.664 11.765191 3.923914 34.264018 35.051845
2004-04-29 09:00:22 51°8.972 2°34.654 11.763045 3.923493 34.265004 34.107982
2004-04-29 09:00:30 51°8.972 2°34.646 11.763045 3.923493 34.265004 34.107982
2004-04-29 09:00:34 51°8.972 2°34.642 11.766104 3.923071 34.263807 33.433794
2004-04-29 09:00:40 51°8.971 2°34.636 11.771993 3.923282 34.266589 33.501212
2004-04-29 09:00:44 51°8.971 2°34.632 11.769026 3.923071 34.265991 32.220255
2004-04-29 09:00:50 51°8.971 2°34.626 11.769391 3.922966 34.267147 31.714614
2004-04-29 09:00:55 51°8.971 2°34.621 11.771582 3.922755 34.263637 31.040426
2004-04-29 09:00:59 51°8.971 2°34.618 11.771582 3.922755 34.263637 31.040426
2004-04-29 09:01:04 51°8.97 2°34.613 11.772998 3.92286 34.264664 29.793178
2004-04-29 09:01:09 51°8.97 2°34.608 11.77213 3.922333 34.258073 29.422375
2004-04-29 09:01:15 51°8.97 2°34.602 11.768067 3.922966 34.263508 29.793178
2004-04-29 09:01:19 51°8.969 2°34.599 11.770213 3.923177 34.264834 29.186409
2004-04-29 09:01:24 51°8.969 2°34.594 11.776148 3.923177 34.263379 28.950443
2004-04-29 09:01:29 51°8.968 2°34.589 11.776148 3.923177 34.263379 28.950443
2004-04-29 09:01:35 51°8.968 2°34.583 11.772358 3.923177 34.264106 27.939161
2004-04-29 09:01:39 51°8.967 2°34.58 11.776969 3.923071 34.263807 27.972871
2004-04-29 09:01:44 51°8.967 2°34.575 11.780439 3.922966 34.263508 27.500939
2004-04-29 09:01:49 51°8.967 2°34.57 11.777791 3.922966 34.263508 27.972871
2004-04-29 09:01:54 51°8.966 2°34.566 11.789613 3.923598 34.266759 26.86046
2004-04-29 09:01:59 51°8.965 2°34.561 11.789613 3.923598 34.266759 26.86046
2004-04-29 09:02:04 51°8.965 2°34.556 11.786783 3.923387 34.263977 26.219982
2004-04-29 09:02:10 51°8.964 2°34.551 11.785596 3.923282 34.260768 26.118853
2004-04-29 09:02:15 51°8.964 2°34.546 11.787924 3.923598 34.262393 25.680631
2004-04-29 09:02:19 51°8.963 2°34.542 11.788746 3.923809 34.262264 24.871606
2004-04-29 09:02:25 51°8.962 2°34.536 11.784912 3.923809 34.258627 24.399674
2004-04-29 09:02:30 51°8.962 2°34.532 11.784912 3.923809 34.258627 24.399674
2004-04-29 09:02:34 51°8.962 2°34.528 11.781991 3.923914 34.257472 24.264836
2004-04-29 09:02:40 51°8.961 2°34.522 11.779891 3.924336 34.260851 23.725486
2004-04-29 09:02:44 51°8.961 2°34.518 11.788016 3.924125 34.259525 24.028871
2004-04-29 09:02:50 51°8.96 2°34.513 11.778019 3.924125 34.260252 24.028871
2004-04-29 09:02:55 51°8.959 2°34.508 11.7777 3.923914 34.258926 23.927742
2004-04-29 09:02:59 51°8.959 2°34.504 11.7777 3.923914 34.258926 23.927742
2004-04-29 09:03:04 51°8.958 2°34.5 11.776695 3.923914 34.258926 24.163708
2004-04-29 09:03:10 51°8.958 2°34.494 11.77665 3.923809 34.258627 23.860324
2004-04-29 09:03:15 51°8.957 2°34.489 11.776604 3.92402 34.259953 23.792905
2004-04-29 09:03:18 51°8.957 2°34.487 11.773089 3.923598 34.260938 23.388392
2004-04-29 09:03:25 51°8.956 2°34.48 11.773545 3.923809 34.262991 23.658067
2004-04-29 09:03:29 51°8.955 2°34.476 11.773545 3.923809 34.262991 23.658067
2004-04-29 09:03:34 51°8.955 2°34.472 11.77108 3.923493 34.262821 24.028871
2004-04-29 09:03:39 51°8.954 2°34.467 11.77455 3.923282 34.26004 24.06258
2004-04-29 09:03:44 51°8.953 2°34.463 11.762908 3.923387 34.261794 24.197418
2004-04-29 09:03:50 51°8.952 2°34.457 11.76825 3.923598 34.265303 23.894033
2004-04-29 09:03:54 51°8.951 2°34.453 11.763821 3.923177 34.261923 23.995161
2004-04-29 09:03:59 51°8.95 2°34.449 11.763821 3.923177 34.261923 23.995161
2004-04-29 09:04:05 51°8.95 2°34.443 11.762588 3.923177 34.262651 24.231127
2004-04-29 09:04:10 51°8.949 2°34.439 11.75857 3.923071 34.263807 24.096289
2004-04-29 09:04:15 51°8.948 2°34.434 11.765145 3.923071 34.265991 24.129999
2004-04-29 09:04:19 51°8.948 2°34.431 11.756469 3.92265 34.264066 24.06258
2004-04-29 09:04:23 51°8.947 2°34.427 11.757109 3.922755 34.267277 24.298546
2004-04-29 09:04:30 51°8.946 2°34.421 11.757109 3.922755 34.267277 24.298546
2004-04-29 09:04:34 51°8.946 2°34.418 11.749619 3.922228 34.263596 24.298546
2004-04-29 09:04:38 51°8.945 2°34.414 11.75003 3.922228 34.265052 23.995161
2004-04-29 09:04:44 51°8.944 2°34.408 11.749482 3.922439 34.269291 24.096289
2004-04-29 09:04:50 51°8.943 2°34.403 11.744459 3.922228 34.266508 24.129999
2004-04-29 09:04:55 51°8.942 2°34.398 11.74286 3.922123 34.267665 24.433383
2004-04-29 09:05:00 51°8.942 2°34.394 11.74286 3.922123 34.267665 24.433383
2004-04-29 09:05:05 51°8.941 2°34.389 11.738247 3.922017 34.268094 24.231127
2004-04-29 09:05:09 51°8.94 2°34.386 11.740668 3.921912 34.269252 24.770477
2004-04-29 09:05:15 51°8.939 2°34.38 11.73578 3.921912 34.271437 24.804187
2004-04-29 09:05:20 51°8.938 2°34.376 11.738612 3.921701 34.273023 24.736768
2004-04-29 09:05:24 51°8.937 2°34.373 11.74455 3.921069 34.269771 23.894033
2004-04-29 09:05:30 51°8.936 2°34.367 11.74455 3.921069 34.269771 23.894033
2004-04-29 09:05:35 51°8.935 2°34.363 11.73843 3.92128 34.274012 24.163708
2004-04-29 09:05:39 51°8.934 2°34.359 11.734456 3.921174 34.271528 24.365965
2004-04-29 09:05:43 51°8.933 2°34.356 11.735095 3.920963 34.272386 24.972734
2004-04-29 09:05:50 51°8.932 2°34.349 11.738978 3.920753 34.269602 24.433383
2004-04-29 09:05:54 51°8.931 2°34.346 11.742449 3.92128 34.276199 25.309828
2004-04-29 09:05:59 51°8.93 2°34.342 11.742449 3.92128 34.276199 25.309828
2004-04-29 09:06:05 51°8.928 2°34.337 11.743043 3.920647 34.270032 24.669349